Wetterdaten: Sonntag, 11.04.2021
Datum Zeit Temp. Aussen Temp. o. S. Temp +5cm Feuchte Auss Luftdruck Regen Sonnenschein Regendauer Solar Windben Empfang
11.04.2021 00:00 9,8 C 8,9 C 8,4 C 98 % 1007,5 hPa 0,0 l/m 0 min 2 min 0 W/m 9,7 km/h (2 Bft) 95,74 %
11.04.2021 00:02 9,8 C 8,9 C 8,4 C 98 % 1007,4 hPa 0,0 l/m 0 min 2 min 0 W/m 6,4 km/h (2 Bft) 92,86 %
11.04.2021 00:04 9,8 C 8,9 C 8,4 C 98 % 1007,4 hPa 0,0 l/m 0 min 2 min 0 W/m 12,9 km/h (3 Bft) 95,74 %
11.04.2021 00:08 9,8 C 8,9 C 8,4 C 98 % 1007,4 hPa 0,0 l/m 0 min 4 min 0 W/m 6,4 km/h (2 Bft) 96,84 %
11.04.2021 00:10 9,8 C 8,9 C 8,4 C 98 % 1007,4 hPa 0,0 l/m 0 min 2 min 0 W/m 9,7 km/h (2 Bft) 97,87 %
11.04.2021 00:12 9,8 C 8,9 C 8,4 C 98 % 1007,4 hPa 0,0 l/m 0 min 2 min 0 W/m 6,4 km/h (2 Bft) 93,62 %
11.04.2021 00:14 9,8 C 8,9 C 8,4 C 98 % 1007,3 hPa 0,0 l/m 0 min 2 min 0 W/m 3,2 km/h (1 Bft) 97,87 %
11.04.2021 00:16 9,8 C 8,9 C 8,4 C 98 % 1007,3 hPa 0,0 l/m 0 min 0 min 0 W/m 6,4 km/h (2 Bft) 97,87 %
11.04.2021 00:18 9,8 C 8,9 C 8,4 C 98 % 1007,3 hPa 0,0 l/m 0 min 2 min 0 W/m 6,4 km/h (2 Bft) 97,87 %
11.04.2021 00:20 9,8 C 8,9 C 8,4 C 98 % 1007,3 hPa 0,0 l/m 0 min 2 min 0 W/m 3,2 km/h (1 Bft) 97,83 %
11.04.2021 00:22 9,8 C 8,9 C 8,4 C 98 % 1007,3 hPa 0,0 l/m 0 min 0 min 0 W/m 3,2 km/h (1 Bft) 93,62 %
11.04.2021 00:24 9,8 C 8,9 C 8,4 C 98 % 1007,3 hPa 0,0 l/m 0 min 0 min 0 W/m 6,4 km/h (2 Bft) 97,87 %
11.04.2021 00:26 9,8 C 8,9 C 8,4 C 98 % 1007,3 hPa 0,0 l/m 0 min 0 min 0 W/m 6,4 km/h (2 Bft) 97,87 %
11.04.2021 00:28 9,8 C 8,9 C 8,4 C 98 % 1007,3 hPa 0,0 l/m 0 min 0 min 0 W/m 6,4 km/h (2 Bft) 97,87 %
11.04.2021 00:30 9,8 C 8,9 C 8,4 C 98 % 1007,3 hPa 0,0 l/m 0 min 2 min 0 W/m 3,2 km/h (1 Bft) 97,87 %
11.04.2021 00:32 9,8 C 8,9 C 8,4 C 98 % 1007,3 hPa 0,2 l/m 0 min 2 min 0 W/m 3,2 km/h (1 Bft) 95,74 %
11.04.2021 00:34 9,8 C 8,9 C 8,4 C 98 % 1007,3 hPa 0,0 l/m 0 min 0 min 0 W/m 3,2 km/h (1 Bft) 97,87 %
11.04.2021 00:36 9,8 C 8,9 C 8,4 C 98 % 1007,3 hPa 0,0 l/m 0 min 2 min 0 W/m 6,4 km/h (2 Bft) 95,74 %
11.04.2021 00:38 9,8 C 8,9 C 8,4 C 98 % 1007,3 hPa 0,0 l/m 0 min 2 min 0 W/m 3,2 km/h (1 Bft) 97,87 %
11.04.2021 00:40 9,8 C 8,9 C 8,4 C 98 % 1007,3 hPa 0,0 l/m 0 min 2 min 0 W/m 6,4 km/h (2 Bft) 97,87 %
11.04.2021 00:42 9,7 C 8,9 C 8,4 C 98 % 1007,3 hPa 0,0 l/m 0 min 2 min 0 W/m 6,4 km/h (2 Bft) 97,83 %
11.04.2021 00:44 9,7 C 8,9 C 8,4 C 98 % 1007,3 hPa 0,0 l/m 0 min 2 min 0 W/m 6,4 km/h (2 Bft) 100,00 %
11.04.2021 00:46 9,7 C 8,9 C 8,4 C 98 % 1007,2 hPa 0,0 l/m 0 min 2 min 0 W/m 3,2 km/h (1 Bft) 100,00 %
11.04.2021 00:48 9,7 C 8,9 C 8,4 C 98 % 1007,2 hPa 0,0 l/m 0 min 2 min 0 W/m 3,2 km/h (1 Bft) 100,00 %
11.04.2021 00:50 9,7 C 8,9 C 8,4 C 98 % 1007,2 hPa 0,0 l/m 0 min 2 min 0 W/m 3,2 km/h (1 Bft) 97,87 %
11.04.2021 00:52 9,7 C 8,9 C 8,4 C 98 % 1007,2 hPa 0,0 l/m 0 min 2 min 0 W/m 6,4 km/h (2 Bft) 97,87 %
11.04.2021 00:54 9,7 C 8,9 C 8,4 C 98 % 1007,2 hPa 0,0 l/m 0 min 2 min 0 W/m 6,4 km/h (2 Bft) 100,00 %
11.04.2021 00:56 9,7 C 8,9 C 8,4 C 98 % 1007,2 hPa 0,0 l/m 0 min 2 min 0 W/m 6,4 km/h (2 Bft) 97,87 %
11.04.2021 00:58 9,7 C 8,9 C 8,4 C 98 % 1007,2 hPa 0,0 l/m 0 min 2 min 0 W/m 6,4 km/h (2 Bft) 100,00 %
11.04.2021 01:00 9,6 C 8,9 C 8,4 C 98 % 1007,1 hPa 0,0 l/m 0 min 2 min 0 W/m 6,4 km/h (2 Bft) 97,87 %
11.04.2021 01:02 9,7 C 8,9 C 8,4 C 98 % 1007,1 hPa 0,0 l/m 0 min 2 min 0 W/m 6,4 km/h (2 Bft) 100,00 %
11.04.2021 01:04 9,7 C 8,9 C 8,4 C 98 % 1007,1 hPa 0,0 l/m 0 min 0 min 0 W/m 3,2 km/h (1 Bft) 47,37 %
11.04.2021 01:06 9,6 C 8,9 C 8,4 C 98 % 1007,1 hPa 0,2 l/m 0 min 2 min 0 W/m 6,4 km/h (2 Bft) 100,00 %
11.04.2021 01:08 9,6 C 8,9 C 7,8 C 98 % 1007,1 hPa 0,0 l/m 0 min 2 min 0 W/m 3,2 km/h (1 Bft) 100,00 %
11.04.2021 01:10 9,6 C 8,9 C 8,4 C 98 % 1007,1 hPa 0,0 l/m 0 min 2 min 0 W/m 3,2 km/h (1 Bft) 97,87 %
11.04.2021 01:12 9,6 C 8,9 C 7,8 C 98 % 1007,1 hPa 0,0 l/m 0 min 2 min 0 W/m 6,4 km/h (2 Bft) 100,00 %
11.04.2021 01:14 9,6 C 8,9 C 7,8 C 98 % 1007,1 hPa 0,0 l/m 0 min 2 min 0 W/m 6,4 km/h (2 Bft) 100,00 %
11.04.2021 01:16 9,6 C 8,9 C 7,8 C 98 % 1007,0 hPa 0,0 l/m 0 min 2 min 0 W/m 6,4 km/h (2 Bft) 100,00 %
11.04.2021 01:18 9,6 C 8,9 C 7,8 C 98 % 1007,1 hPa 0,2 l/m 0 min 2 min 0 W/m 6,4 km/h (2 Bft) 100,00 %
11.04.2021 01:20 9,6 C 8,3 C 7,8 C 98 % 1007,0 hPa 0,0 l/m 0 min 2 min 0 W/m 12,9 km/h (3 Bft) 100,00 %
11.04.2021 01:22 9,6 C 8,3 C 7,8 C 98 % 1007,0 hPa 0,2 l/m 0 min 2 min 0 W/m 3,2 km/h (1 Bft) 100,00 %
11.04.2021 01:24 9,5 C 8,3 C 7,8 C 98 % 1007,0 hPa 0,0 l/m 0 min 2 min 0 W/m 12,9 km/h (3 Bft) 100,00 %
11.04.2021 01:26 9,5 C 8,3 C 7,8 C 98 % 1007,0 hPa 0,0 l/m 0 min 2 min 0 W/m 9,7 km/h (2 Bft) 97,87 %
11.04.2021 01:28 9,5 C 8,3 C 7,8 C 98 % 1007,0 hPa 0,0 l/m 0 min 2 min 0 W/m 12,9 km/h (3 Bft) 100,00 %
11.04.2021 01:30 9,5 C 8,3 C 7,8 C 98 % 1007,0 hPa 0,0 l/m 0 min 2 min 0 W/m 6,4 km/h (2 Bft) 100,00 %
11.04.2021 01:32 9,5 C 8,3 C 7,8 C 98 % 1007,0 hPa 0,0 l/m 0 min 2 min 0 W/m 12,9 km/h (3 Bft) 100,00 %
11.04.2021 01:34 9,5 C 8,3 C 7,8 C 98 % 1007,0 hPa 0,0 l/m 0 min 2 min 0 W/m 6,4 km/h (2 Bft) 100,00 %
11.04.2021 01:36 9,5 C 8,3 C 7,8 C 98 % 1007,0 hPa 0,0 l/m 0 min 2 min 0 W/m 6,4 km/h (2 Bft) 97,87 %
11.04.2021 01:38 9,5 C 8,9 C 7,8 C 98 % 1007,0 hPa 0,0 l/m 0 min 2 min 0 W/m 6,4 km/h (2 Bft) 100,00 %
11.04.2021 01:40 9,5 C 8,9 C 7,8 C 98 % 1007,0 hPa 0,2 l/m 0 min 2 min 0 W/m 6,4 km/h (2 Bft) 100,00 %
11.04.2021 01:42 9,5 C 8,9 C 7,8 C 98 % 1006,9 hPa 0,0 l/m 0 min 2 min 0 W/m 6,4 km/h (2 Bft) 97,87 %
11.04.2021 01:44 9,5 C 8,9 C 7,8 C 98 % 1006,9 hPa 0,0 l/m 0 min 2 min 0 W/m 6,4 km/h (2 Bft) 100,00 %
11.04.2021 01:46 9,5 C 8,9 C 7,8 C 98 % 1006,9 hPa 0,0 l/m 0 min 2 min 0 W/m 6,4 km/h (2 Bft) 100,00 %
11.04.2021 01:48 9,5 C 8,9 C 7,8 C 98 % 1006,9 hPa 0,0 l/m 0 min 2 min 0 W/m 6,4 km/h (2 Bft) 100,00 %
11.04.2021 01:50 9,5 C 8,9 C 7,8 C 98 % 1006,9 hPa 0,0 l/m 0 min 2 min 0 W/m 12,9 km/h (3 Bft) 97,87 %
11.04.2021 01:52 9,5 C 8,9 C 7,8 C 98 % 1006,9 hPa 0,0 l/m 0 min 2 min 0 W/m 6,4 km/h (2 Bft) 100,00 %
11.04.2021 01:54 9,5 C 8,9 C 7,8 C 98 % 1006,9 hPa 0,0 l/m 0 min 0 min 0 W/m 12,9 km/h (3 Bft) 100,00 %
11.04.2021 01:56 9,5 C 8,9 C 7,8 C 98 % 1006,9 hPa 0,0 l/m 0 min 0 min 0 W/m 6,4 km/h (2 Bft) 97,83 %
11.04.2021 01:58 9,5 C 8,9 C 7,8 C 98 % 1006,9 hPa 0,0 l/m 0 min 0 min 0 W/m 9,7 km/h (2 Bft) 100,00 %
11.04.2021 02:00 9,5 C 8,9 C 7,8 C 98 % 1006,9 hPa 0,0 l/m 0 min 0 min 0 W/m 9,7 km/h (2 Bft) 100,00 %
11.04.2021 02:02 9,5 C 8,9 C 7,8 C 98 % 1006,8 hPa 0,0 l/m 0 min 0 min 0 W/m 9,7 km/h (2 Bft) 100,00 %
11.04.2021 02:04 9,5 C 8,9 C 7,8 C 98 % 1006,7 hPa 0,0 l/m 0 min 0 min 0 W/m 6,4 km/h (2 Bft) 93,62 %
11.04.2021 02:06 9,5 C 8,9 C 7,8 C 98 % 1006,7 hPa 0,0 l/m 0 min 0 min 0 W/m 6,4 km/h (2 Bft) 95,74 %
11.04.2021 02:08 9,5 C 8,9 C 7,8 C 98 % 1006,7 hPa 0,0 l/m 0 min 0 min 0 W/m 6,4 km/h (2 Bft) 97,83 %
11.04.2021 02:10 9,5 C 8,9 C 7,8 C 98 % 1006,7 hPa 0,0 l/m 0 min 0 min 0 W/m 6,4 km/h (2 Bft) 97,87 %
11.04.2021 02:12 9,4 C 8,3 C 7,8 C 98 % 1006,7 hPa 0,0 l/m 0 min 0 min 0 W/m 3,2 km/h (1 Bft) 97,87 %
11.04.2021 02:14 9,4 C 8,3 C 7,8 C 98 % 1006,7 hPa 0,0 l/m 0 min 0 min 0 W/m 6,4 km/h (2 Bft) 97,87 %
11.04.2021 02:16 9,4 C 8,3 C 7,8 C 98 % 1006,7 hPa 0,0 l/m 0 min 0 min 0 W/m 6,4 km/h (2 Bft) 95,74 %
11.04.2021 02:18 9,4 C 8,9 C 7,8 C 98 % 1006,7 hPa 0,0 l/m 0 min 0 min 0 W/m 3,2 km/h (1 Bft) 97,87 %
11.04.2021 02:20 9,4 C 8,9 C 7,8 C 98 % 1006,7 hPa 0,0 l/m 0 min 0 min 0 W/m 6,4 km/h (2 Bft) 97,83 %
11.04.2021 02:22 9,4 C 8,9 C 7,8 C 98 % 1006,7 hPa 0,0 l/m 0 min 0 min 0 W/m 6,4 km/h (2 Bft) 95,74 %
11.04.2021 02:24 9,4 C 8,9 C 7,8 C 98 % 1006,7 hPa 0,0 l/m 0 min 0 min 0 W/m 6,4 km/h (2 Bft) 95,74 %
11.04.2021 02:26 9,4 C 8,9 C 8,4 C 98 % 1006,7 hPa 0,0 l/m 0 min 0 min 0 W/m 6,4 km/h (2 Bft) 93,62 %
11.04.2021 02:28 9,4 C 8,9 C 7,8 C 98 % 1006,7 hPa 0,0 l/m 0 min 2 min 0 W/m 3,2 km/h (1 Bft) 97,87 %
11.04.2021 02:30 9,4 C 8,9 C 8,4 C 98 % 1006,7 hPa 0,0 l/m 0 min 0 min 0 W/m 6,4 km/h (2 Bft) 95,74 %
11.04.2021 02:32 9,4 C 8,9 C 7,8 C 98 % 1006,6 hPa 0,0 l/m 0 min 0 min 0 W/m 3,2 km/h (1 Bft) 97,83 %
11.04.2021 02:34 9,4 C 8,9 C 7,8 C 98 % 1006,6 hPa 0,0 l/m 0 min 0 min 0 W/m 6,4 km/h (2 Bft) 95,74 %
11.04.2021 02:36 9,4 C 8,3 C 7,8 C 98 % 1006,5 hPa 0,0 l/m 0 min 0 min 0 W/m 3,2 km/h (1 Bft) 95,74 %
11.04.2021 02:38 9,4 C 8,3 C 7,8 C 98 % 1006,5 hPa 0,0 l/m 0 min 0 min 0 W/m 6,4 km/h (2 Bft) 95,74 %
11.04.2021 02:40 9,4 C 8,3 C 7,8 C 98 % 1006,5 hPa 0,0 l/m 0 min 0 min 0 W/m 3,2 km/h (1 Bft) 95,74 %
11.04.2021 02:42 9,4 C 8,3 C 7,8 C 98 % 1006,5 hPa 0,0 l/m 0 min 0 min 0 W/m 3,2 km/h (1 Bft) 95,74 %
11.04.2021 02:44 9,4 C 8,3 C 7,8 C 98 % 1006,5 hPa 0,0 l/m 0 min 0 min 0 W/m 6,4 km/h (2 Bft) 93,48 %
11.04.2021 02:46 9,4 C 8,3 C 7,8 C 98 % 1006,4 hPa 0,0 l/m 0 min 0 min 0 W/m 6,4 km/h (2 Bft) 93,62 %
11.04.2021 02:48 9,4 C 8,3 C 7,8 C 98 % 1006,4 hPa 0,0 l/m 0 min 0 min 0 W/m 3,2 km/h (1 Bft) 95,74 %
11.04.2021 02:50 9,4 C 8,3 C 7,8 C 98 % 1006,4 hPa 0,0 l/m 0 min 0 min 0 W/m 3,2 km/h (1 Bft) 95,74 %
11.04.2021 02:52 9,4 C 8,3 C 8,4 C 98 % 1006,4 hPa 0,0 l/m 0 min 0 min 0 W/m 3,2 km/h (1 Bft) 97,87 %
11.04.2021 02:54 9,4 C 8,3 C 8,4 C 98 % 1006,4 hPa 0,0 l/m 0 min 0 min 0 W/m 3,2 km/h (1 Bft) 95,74 %
11.04.2021 02:56 9,4 C 8,3 C 8,4 C 98 % 1006,4 hPa 0,0 l/m 0 min 2 min 0 W/m 6,4 km/h (2 Bft) 95,65 %
11.04.2021 02:58 9,4 C 8,3 C 8,4 C 98 % 1006,4 hPa 0,0 l/m 0 min 2 min 0 W/m 3,2 km/h (1 Bft) 97,87 %
11.04.2021 03:00 9,4 C 8,3 C 7,8 C 98 % 1006,4 hPa 0,0 l/m 0 min 2 min 0 W/m 6,4 km/h (2 Bft) 97,87 %
11.04.2021 03:02 9,4 C 8,3 C 8,4 C 98 % 1006,4 hPa 0,2 l/m 0 min 2 min 0 W/m 6,4 km/h (2 Bft) 91,49 %
11.04.2021 03:04 9,4 C 8,3 C 7,8 C 98 % 1006,3 hPa 0,0 l/m 0 min 2 min 0 W/m 6,4 km/h (2 Bft) 97,87 %
11.04.2021 03:06 9,4 C 8,3 C 8,4 C 98 % 1006,4 hPa 0,0 l/m 0 min 2 min 0 W/m 6,4 km/h (2 Bft) 97,87 %
11.04.2021 03:08 9,4 C 8,3 C 8,4 C 98 % 1006,3 hPa 0,0 l/m 0 min 2 min 0 W/m 6,4 km/h (2 Bft) 97,87 %
11.04.2021 03:10 9,4 C 8,9 C 8,4 C 98 % 1006,4 hPa 0,0 l/m 0 min 2 min 0 W/m 6,4 km/h (2 Bft) 95,74 %
11.04.2021 03:12 9,4 C 8,3 C 8,4 C 98 % 1006,4 hPa 0,2 l/m 0 min 2 min 0 W/m 3,2 km/h (1 Bft) 97,87 %
11.04.2021 03:14 9,4 C 8,3 C 8,4 C 98 % 1006,3 hPa 0,0 l/m 0 min 2 min 0 W/m 3,2 km/h (1 Bft) 95,74 %
11.04.2021 03:16 9,4 C 8,3 C 7,8 C 98 % 1006,5 hPa 0,0 l/m 0 min 2 min 0 W/m 12,9 km/h (3 Bft) 98,00 %
11.04.2021 03:18 9,2 C 7,8 C 7,8 C 99 % 1006,4 hPa 0,2 l/m 0 min 2 min 0 W/m 16,1 km/h (3 Bft) 97,83 %
11.04.2021 03:20 9,0 C 7,8 C 7,3 C 98 % 1006,5 hPa 0,0 l/m 0 min 2 min 0 W/m 12,9 km/h (3 Bft) 100,00 %
11.04.2021 03:22 8,8 C 7,2 C 7,3 C 98 % 1006,5 hPa 0,0 l/m 0 min 0 min 0 W/m 16,1 km/h (3 Bft) 100,00 %
11.04.2021 03:24 8,6 C 7,2 C 6,7 C 98 % 1006,6 hPa 0,0 l/m 0 min 0 min 0 W/m 9,7 km/h (2 Bft) 100,00 %
11.04.2021 03:26 8,4 C 7,2 C 6,7 C 98 % 1006,7 hPa 0,0 l/m 0 min 0 min 0 W/m 9,7 km/h (2 Bft) 100,00 %
11.04.2021 03:28 8,3 C 7,2 C 6,7 C 98 % 1006,7 hPa 0,0 l/m 0 min 2 min 0 W/m 16,1 km/h (3 Bft) 100,00 %
11.04.2021 03:30 8,1 C 6,7 C 6,7 C 98 % 1006,6 hPa 0,0 l/m 0 min 2 min 0 W/m 16,1 km/h (3 Bft) 100,00 %
11.04.2021 03:32 8,0 C 6,7 C 6,7 C 98 % 1006,7 hPa 0,0 l/m 0 min 2 min 0 W/m 9,7 km/h (2 Bft) 100,00 %
11.04.2021 03:34 7,9 C 6,7 C 6,7 C 98 % 1006,6 hPa 0,0 l/m 0 min 0 min 0 W/m 9,7 km/h (2 Bft) 100,00 %
11.04.2021 03:36 7,8 C 6,7 C 6,1 C 98 % 1006,7 hPa 0,0 l/m 0 min 0 min 0 W/m 12,9 km/h (3 Bft) 100,00 %
11.04.2021 03:38 7,6 C 6,7 C 6,1 C 98 % 1006,7 hPa 0,0 l/m 0 min 2 min 0 W/m 9,7 km/h (2 Bft) 100,00 %
11.04.2021 03:40 7,6 C 6,7 C 6,1 C 98 % 1006,7 hPa 0,0 l/m 0 min 0 min 0 W/m 9,7 km/h (2 Bft) 100,00 %
11.04.2021 03:42 7,5 C 6,7 C 6,1 C 98 % 1006,7 hPa 0,0 l/m 0 min 0 min 0 W/m 12,9 km/h (3 Bft) 97,83 %
11.04.2021 03:44 7,5 C 6,7 C 6,1 C 98 % 1006,8 hPa 0,0 l/m 0 min 0 min 0 W/m 6,4 km/h (2 Bft) 100,00 %
11.04.2021 03:46 7,4 C 6,7 C 6,1 C 98 % 1006,8 hPa 0,0 l/m 0 min 0 min 0 W/m 12,9 km/h (3 Bft) 97,87 %
11.04.2021 03:48 7,3 C 6,1 C 6,1 C 98 % 1006,7 hPa 0,0 l/m 0 min 0 min 0 W/m 9,7 km/h (2 Bft) 97,87 %
11.04.2021 03:50 7,3 C 6,1 C 6,1 C 98 % 1006,8 hPa 0,0 l/m 0 min 0 min 0 W/m 3,2 km/h (1 Bft) 100,00 %
11.04.2021 03:52 7,2 C 6,1 C 6,1 C 98 % 1006,7 hPa 0,0 l/m 0 min 2 min 0 W/m 3,2 km/h (1 Bft) 100,00 %
11.04.2021 03:54 7,1 C 6,1 C 6,1 C 98 % 1006,7 hPa 0,0 l/m 0 min 2 min 0 W/m 6,4 km/h (2 Bft) 100,00 %
11.04.2021 03:56 7,1 C 6,1 C 6,1 C 98 % 1006,8 hPa 0,0 l/m 0 min 2 min 0 W/m 6,4 km/h (2 Bft) 100,00 %
11.04.2021 03:58 7,0 C 6,1 C 6,1 C 98 % 1006,6 hPa 0,0 l/m 0 min 2 min 0 W/m 12,9 km/h (3 Bft) 100,00 %
11.04.2021 04:00 7,0 C 6,1 C 6,1 C 98 % 1006,6 hPa 0,0 l/m 0 min 2 min 0 W/m 6,4 km/h (2 Bft) 97,87 %
11.04.2021 04:02 6,9 C 6,1 C 6,1 C 98 % 1006,7 hPa 0,0 l/m 0 min 2 min 0 W/m 9,7 km/h (2 Bft) 96,15 %
11.04.2021 04:04 6,9 C 6,1 C 5,6 C 98 % 1006,7 hPa 0,0 l/m 0 min 2 min 0 W/m 6,4 km/h (2 Bft) 100,00 %
11.04.2021 04:06 6,9 C 6,1 C 5,6 C 98 % 1006,7 hPa 0,0 l/m 0 min 0 min 0 W/m 9,7 km/h (2 Bft) 100,00 %
11.04.2021 04:08 6,8 C 6,1 C 5,6 C 98 % 1006,7 hPa 0,0 l/m 0 min 0 min 0 W/m 9,7 km/h (2 Bft) 100,00 %
11.04.2021 04:10 6,8 C 6,1 C 5,6 C 98 % 1006,7 hPa 0,0 l/m 0 min 0 min 0 W/m 9,7 km/h (2 Bft) 100,00 %
11.04.2021 04:12 6,7 C 6,1 C 5,6 C 98 % 1006,7 hPa 0,0 l/m 0 min 0 min 0 W/m 9,7 km/h (2 Bft) 100,00 %
11.04.2021 04:14 6,6 C 5,6 C 5,6 C 98 % 1006,7 hPa 0,0 l/m 0 min 2 min 0 W/m 9,7 km/h (2 Bft) 100,00 %
11.04.2021 04:16 6,6 C 5,6 C 5,6 C 98 % 1006,7 hPa 0,0 l/m 0 min 2 min 0 W/m 9,7 km/h (2 Bft) 97,83 %
11.04.2021 04:18 6,6 C 5,6 C 5,6 C 98 % 1006,7 hPa 0,0 l/m 0 min 2 min 0 W/m 6,4 km/h (2 Bft) 100,00 %
11.04.2021 04:20 6,5 C 5,6 C 5,6 C 98 % 1006,8 hPa 0,0 l/m 0 min 2 min 0 W/m 6,4 km/h (2 Bft) 54,55 %
11.04.2021 04:22 6,5 C 5,6 C 5,6 C 98 % 1006,8 hPa 0,2 l/m 0 min 2 min 0 W/m 9,7 km/h (2 Bft) 100,00 %
11.04.2021 04:24 6,5 C 5,6 C 5,6 C 98 % 1006,9 hPa 0,0 l/m 0 min 2 min 0 W/m 12,9 km/h (3 Bft) 100,00 %
11.04.2021 04:26 6,4 C 5,6 C 5,6 C 98 % 1007,0 hPa 0,0 l/m 0 min 2 min 0 W/m 12,9 km/h (3 Bft) 100,00 %
11.04.2021 04:28 6,4 C 5,6 C 5,6 C 98 % 1007,2 hPa 0,0 l/m 0 min 2 min 0 W/m 12,9 km/h (3 Bft) 100,00 %
11.04.2021 04:30 6,3 C 5,6 C 5,0 C 98 % 1007,2 hPa 0,2 l/m 0 min 2 min 0 W/m 12,9 km/h (3 Bft) 100,00 %
11.04.2021 04:32 6,2 C 5,6 C 5,0 C 98 % 1007,2 hPa 0,2 l/m 0 min 2 min 0 W/m 16,1 km/h (3 Bft) 100,00 %
11.04.2021 04:34 6,1 C 5,0 C 5,0 C 98 % 1007,2 hPa 0,0 l/m 0 min 2 min 0 W/m 16,1 km/h (3 Bft) 100,00 %
11.04.2021 04:36 6,1 C 5,0 C 5,0 C 98 % 1007,2 hPa 0,0 l/m 0 min 2 min 0 W/m 16,1 km/h (3 Bft) 100,00 %
11.04.2021 04:38 6,0 C 5,0 C 5,0 C 98 % 1007,1 hPa 0,2 l/m 0 min 2 min 0 W/m 12,9 km/h (3 Bft) 100,00 %
11.04.2021 04:40 6,0 C 5,0 C 5,0 C 98 % 1007,1 hPa 0,0 l/m 0 min 2 min 0 W/m 16,1 km/h (3 Bft) 100,00 %
11.04.2021 04:42 6,0 C 5,0 C 5,0 C 98 % 1007,1 hPa 0,0 l/m 0 min 2 min 0 W/m 19,3 km/h (3 Bft) 100,00 %
11.04.2021 04:44 5,9 C 5,0 C 5,0 C 98 % 1007,3 hPa 0,0 l/m 0 min 2 min 0 W/m 12,9 km/h (3 Bft) 100,00 %
11.04.2021 04:46 5,9 C 5,0 C 5,0 C 98 % 1007,2 hPa 0,2 l/m 0 min 2 min 0 W/m 12,9 km/h (3 Bft) 100,00 %
11.04.2021 04:48 5,9 C 5,0 C 5,0 C 98 % 1007,3 hPa 0,0 l/m 0 min 2 min 0 W/m 16,1 km/h (3 Bft) 100,00 %
11.04.2021 04:50 5,8 C 5,0 C 5,0 C 98 % 1007,4 hPa 0,0 l/m 0 min 2 min 0 W/m 16,1 km/h (3 Bft) 100,00 %
11.04.2021 04:52 5,8 C 5,0 C 5,0 C 98 % 1007,4 hPa 0,0 l/m 0 min 2 min 0 W/m 12,9 km/h (3 Bft) 100,00 %
11.04.2021 04:54 5,8 C 5,0 C 5,0 C 98 % 1007,4 hPa 0,0 l/m 0 min 2 min 0 W/m 9,7 km/h (2 Bft) 100,00 %
11.04.2021 04:56 5,7 C 5,0 C 5,0 C 98 % 1007,4 hPa 0,2 l/m 0 min 2 min 0 W/m 16,1 km/h (3 Bft) 100,00 %
11.04.2021 04:58 5,6 C 5,0 C 4,5 C 98 % 1007,4 hPa 0,0 l/m 0 min 2 min 0 W/m 16,1 km/h (3 Bft) 100,00 %
11.04.2021 05:00 5,5 C 5,0 C 4,5 C 98 % 1007,5 hPa 0,2 l/m 0 min 2 min 0 W/m 16,1 km/h (3 Bft) 100,00 %
11.04.2021 05:02 5,5 C 4,4 C 4,5 C 98 % 1007,6 hPa 0,0 l/m 0 min 2 min 0 W/m 9,7 km/h (2 Bft) 95,74 %
11.04.2021 05:04 5,4 C 4,4 C 4,5 C 98 % 1007,6 hPa 0,2 l/m 0 min 2 min 0 W/m 9,7 km/h (2 Bft) 97,87 %
11.04.2021 05:06 5,4 C 4,4 C 4,5 C 98 % 1007,7 hPa 0,0 l/m 0 min 2 min 0 W/m 9,7 km/h (2 Bft) 97,87 %
11.04.2021 05:08 5,3 C 4,4 C 4,5 C 98 % 1007,6 hPa 0,2 l/m 0 min 2 min 0 W/m 19,3 km/h (3 Bft) 97,92 %
11.04.2021 05:10 5,3 C 4,4 C 4,5 C 98 % 1007,6 hPa 0,0 l/m 0 min 2 min 0 W/m 16,1 km/h (3 Bft) 97,87 %
11.04.2021 05:12 5,3 C 4,4 C 4,5 C 98 % 1007,7 hPa 0,2 l/m 0 min 2 min 0 W/m 22,5 km/h (4 Bft) 95,74 %
11.04.2021 05:14 5,1 C 4,4 C 4,5 C 98 % 1007,6 hPa 0,0 l/m 0 min 2 min 0 W/m 12,9 km/h (3 Bft) 93,48 %
11.04.2021 05:16 5,1 C 4,4 C 4,5 C 98 % 1007,5 hPa 0,0 l/m 0 min 2 min 0 W/m 16,1 km/h (3 Bft) 93,62 %
11.04.2021 05:18 5,1 C 4,4 C 4,5 C 98 % 1007,5 hPa 0,0 l/m 0 min 2 min 0 W/m 19,3 km/h (3 Bft) 95,74 %
11.04.2021 05:20 5,0 C 4,4 C 4,5 C 98 % 1007,5 hPa 0,2 l/m 0 min 2 min 0 W/m 16,1 km/h (3 Bft) 95,74 %
11.04.2021 05:22 5,0 C 4,4 C 4,5 C 98 % 1007,6 hPa 0,0 l/m 0 min 2 min 0 W/m 6,4 km/h (2 Bft) 95,74 %
11.04.2021 05:24 4,9 C 4,4 C 4,5 C 98 % 1007,8 hPa 0,0 l/m 0 min 2 min 0 W/m 12,9 km/h (3 Bft) 93,62 %
11.04.2021 05:26 4,9 C 4,4 C 4,5 C 98 % 1007,8 hPa 0,0 l/m 0 min 2 min 0 W/m 9,7 km/h (2 Bft) 93,48 %
11.04.2021 05:28 4,9 C 3,9 C 3,9 C 98 % 1007,8 hPa 0,2 l/m 0 min 2 min 0 W/m 19,3 km/h (3 Bft) 95,74 %
11.04.2021 05:30 4,8 C 3,9 C 3,9 C 98 % 1007,8 hPa 0,0 l/m 0 min 2 min 0 W/m 12,9 km/h (3 Bft) 95,74 %
11.04.2021 05:32 4,8 C 3,9 C 3,9 C 98 % 1007,8 hPa 0,0 l/m 0 min 2 min 0 W/m 9,7 km/h (2 Bft) 91,49 %
11.04.2021 05:34 4,8 C 3,9 C 3,9 C 98 % 1007,8 hPa 0,0 l/m 0 min 2 min 0 W/m 16,1 km/h (3 Bft) 95,74 %
11.04.2021 05:36 4,8 C 3,9 C 3,9 C 98 % 1007,8 hPa 0,0 l/m 0 min 2 min 0 W/m 9,7 km/h (2 Bft) 95,74 %
11.04.2021 05:38 4,7 C 3,9 C 3,9 C 98 % 1007,8 hPa 0,0 l/m 0 min 2 min 0 W/m 16,1 km/h (3 Bft) 95,74 %
11.04.2021 05:40 4,7 C 3,9 C 3,9 C 98 % 1007,9 hPa 0,2 l/m 0 min 2 min 0 W/m 16,1 km/h (3 Bft) 95,74 %
11.04.2021 05:42 4,6 C 3,9 C 3,9 C 98 % 1007,9 hPa 0,0 l/m 0 min 2 min 0 W/m 19,3 km/h (3 Bft) 93,62 %
11.04.2021 05:44 4,6 C 3,9 C 3,9 C 98 % 1007,8 hPa 0,0 l/m 0 min 2 min 0 W/m 16,1 km/h (3 Bft) 95,74 %
11.04.2021 05:46 4,5 C 3,9 C 3,9 C 98 % 1007,8 hPa 0,2 l/m 0 min 2 min 0 W/m 19,3 km/h (3 Bft) 95,74 %
11.04.2021 05:48 4,5 C 3,9 C 3,9 C 98 % 1007,8 hPa 0,0 l/m 0 min 2 min 0 W/m 16,1 km/h (3 Bft) 95,74 %
11.04.2021 05:50 4,5 C 3,9 C 3,9 C 98 % 1007,8 hPa 0,0 l/m 0 min 2 min 0 W/m 12,9 km/h (3 Bft) 93,48 %
11.04.2021 05:52 4,5 C 3,9 C 3,9 C 98 % 1007,7 hPa 0,0 l/m 0 min 2 min 0 W/m 16,1 km/h (3 Bft) 95,74 %
11.04.2021 05:54 4,5 C 3,9 C 3,9 C 98 % 1007,8 hPa 0,0 l/m 0 min 2 min 0 W/m 16,1 km/h (3 Bft) 93,62 %
11.04.2021 05:56 4,5 C 3,9 C 3,9 C 98 % 1007,9 hPa 0,0 l/m 0 min 2 min 0 W/m 19,3 km/h (3 Bft) 93,62 %
11.04.2021 05:58 4,4 C 3,9 C 3,9 C 98 % 1007,8 hPa 0,0 l/m 0 min 0 min 0 W/m 22,5 km/h (4 Bft) 100,00 %
11.04.2021 06:00 4,4 C 3,9 C 3,9 C 98 % 1007,7 hPa 0,0 l/m 0 min 2 min 0 W/m 16,1 km/h (3 Bft) 100,00 %
11.04.2021 06:02 4,4 C 3,9 C 3,9 C 98 % 1007,7 hPa 0,0 l/m 0 min 2 min 0 W/m 25,7 km/h (4 Bft) 93,62 %
11.04.2021 06:04 4,3 C 3,3 C 3,9 C 98 % 1007,8 hPa 0,0 l/m 0 min 2 min 0 W/m 12,9 km/h (3 Bft) 100,00 %
11.04.2021 06:08 4,3 C 3,9 C 3,9 C 98 % 1007,9 hPa 0,0 l/m 0 min 0 min 0 W/m 19,3 km/h (3 Bft) 100,00 %
11.04.2021 06:10 4,2 C 3,9 C 3,9 C 98 % 1007,9 hPa 0,0 l/m 0 min 0 min 0 W/m 19,3 km/h (3 Bft) 97,87 %
11.04.2021 06:12 4,2 C 3,9 C 3,9 C 98 % 1008,0 hPa 0,0 l/m 0 min 0 min 0 W/m 16,1 km/h (3 Bft) 100,00 %
11.04.2021 06:14 4,2 C 3,9 C 3,9 C 98 % 1008,0 hPa 0,0 l/m 0 min 0 min 0 W/m 6,4 km/h (2 Bft) 100,00 %
11.04.2021 06:16 4,1 C 3,3 C 3,4 C 98 % 1008,1 hPa 0,0 l/m 0 min 0 min 0 W/m 12,9 km/h (3 Bft) 100,00 %
11.04.2021 06:18 4,1 C 3,3 C 3,4 C 98 % 1008,2 hPa 0,0 l/m 0 min 0 min 0 W/m 16,1 km/h (3 Bft) 100,00 %
11.04.2021 06:20 4,1 C 3,9 C 3,4 C 98 % 1008,2 hPa 0,0 l/m 0 min 0 min 0 W/m 12,9 km/h (3 Bft) 100,00 %
11.04.2021 06:22 4,1 C 3,9 C 3,4 C 98 % 1008,1 hPa 0,0 l/m 0 min 0 min 0 W/m 25,7 km/h (4 Bft) 100,00 %
11.04.2021 06:24 4,1 C 3,3 C 3,4 C 98 % 1008,1 hPa 0,0 l/m 0 min 0 min 0 W/m 19,3 km/h (3 Bft) 97,14 %
11.04.2021 06:26 4,1 C 3,3 C 3,4 C 98 % 1008,1 hPa 0,0 l/m 0 min 0 min 0 W/m 12,9 km/h (3 Bft) 100,00 %
11.04.2021 06:28 4,1 C 3,3 C 3,4 C 98 % 1008,1 hPa 0,0 l/m 0 min 0 min 0 W/m 19,3 km/h (3 Bft) 100,00 %
11.04.2021 06:30 4,0 C 3,3 C 3,4 C 98 % 1008,1 hPa 0,0 l/m 0 min 0 min 0 W/m 12,9 km/h (3 Bft) 100,00 %
11.04.2021 06:32 4,0 C 3,3 C 3,4 C 98 % 1008,2 hPa 0,0 l/m 0 min 0 min 0 W/m 12,9 km/h (3 Bft) 97,87 %
11.04.2021 06:34 4,0 C 3,3 C 3,4 C 98 % 1008,3 hPa 0,0 l/m 0 min 0 min 0 W/m 16,1 km/h (3 Bft) 54,55 %
11.04.2021 06:36 4,0 C 3,3 C 3,4 C 98 % 1008,4 hPa 0,0 l/m 0 min 0 min 0 W/m 22,5 km/h (4 Bft) 97,87 %
11.04.2021 06:38 4,0 C 3,3 C 3,4 C 98 % 1008,4 hPa 0,0 l/m 0 min 0 min 0 W/m 16,1 km/h (3 Bft) 96,55 %
11.04.2021 06:40 4,0 C 3,3 C 3,4 C 98 % 1008,3 hPa 0,0 l/m 0 min 0 min 0 W/m 16,1 km/h (3 Bft) 97,14 %
11.04.2021 06:42 3,9 C 3,3 C 3,4 C 98 % 1008,3 hPa 0,0 l/m 0 min 0 min 0 W/m 25,7 km/h (4 Bft) 95,74 %
11.04.2021 06:44 3,9 C 3,3 C 3,4 C 98 % 1008,5 hPa 0,0 l/m 0 min 0 min 0 W/m 12,9 km/h (3 Bft) 97,87 %
11.04.2021 06:46 3,9 C 3,3 C 3,4 C 98 % 1008,4 hPa 0,0 l/m 0 min 0 min 0 W/m 16,1 km/h (3 Bft) 95,74 %
11.04.2021 06:48 3,9 C 3,3 C 3,4 C 98 % 1008,5 hPa 0,0 l/m 0 min 0 min 0 W/m 9,7 km/h (2 Bft) 93,62 %
11.04.2021 06:50 3,9 C 3,3 C 3,4 C 98 % 1008,5 hPa 0,0 l/m 0 min 0 min 0 W/m 16,1 km/h (3 Bft) 95,65 %
11.04.2021 06:52 3,9 C 3,3 C 3,4 C 98 % 1008,5 hPa 0,0 l/m 0 min 0 min 0 W/m 22,5 km/h (4 Bft) 95,74 %
11.04.2021 06:54 3,9 C 3,3 C 3,4 C 98 % 1008,5 hPa 0,0 l/m 0 min 0 min 0 W/m 12,9 km/h (3 Bft) 97,87 %
11.04.2021 06:56 3,8 C 3,3 C 3,4 C 98 % 1008,5 hPa 0,0 l/m 0 min 0 min 0 W/m 16,1 km/h (3 Bft) 97,87 %
11.04.2021 06:58 3,8 C 3,3 C 3,4 C 98 % 1008,5 hPa 0,0 l/m 0 min 0 min 0 W/m 16,1 km/h (3 Bft) 97,87 %
11.04.2021 07:00 3,8 C 3,3 C 3,4 C 98 % 1008,5 hPa 0,0 l/m 0 min 0 min 0 W/m 12,9 km/h (3 Bft) 97,87 %
11.04.2021 07:02 3,8 C 3,3 C 3,4 C 98 % 1008,6 hPa 0,0 l/m 0 min 0 min 0 W/m 6,4 km/h (2 Bft) 97,87 %
11.04.2021 07:04 3,8 C 3,3 C 3,4 C 98 % 1008,7 hPa 0,0 l/m 0 min 0 min 0 W/m 12,9 km/h (3 Bft) 97,87 %
11.04.2021 07:06 3,8 C 3,3 C 3,4 C 98 % 1008,8 hPa 0,0 l/m 0 min 0 min 0 W/m 12,9 km/h (3 Bft) 97,92 %
11.04.2021 07:08 3,8 C 3,3 C 3,4 C 98 % 1008,8 hPa 0,0 l/m 0 min 0 min 0 W/m 16,1 km/h (3 Bft) 97,87 %
11.04.2021 07:10 3,8 C 3,3 C 3,4 C 98 % 1008,8 hPa 0,0 l/m 0 min 0 min 0 W/m 9,7 km/h (2 Bft) 95,74 %
11.04.2021 07:12 3,8 C 3,3 C 3,4 C 98 % 1008,8 hPa 0,0 l/m 0 min 0 min 2 W/m 9,7 km/h (2 Bft) 95,74 %
11.04.2021 07:14 3,8 C 3,3 C 3,4 C 98 % 1008,9 hPa 0,0 l/m 0 min 0 min 5 W/m 12,9 km/h (3 Bft) 97,83 %
11.04.2021 07:16 3,8 C 3,3 C 3,4 C 98 % 1008,9 hPa 0,0 l/m 0 min 0 min 7 W/m 12,9 km/h (3 Bft) 97,87 %
11.04.2021 07:18 3,8 C 3,3 C 3,4 C 98 % 1008,9 hPa 0,0 l/m 0 min 0 min 7 W/m 16,1 km/h (3 Bft) 97,87 %
11.04.2021 07:20 3,8 C 3,3 C 3,4 C 99 % 1008,9 hPa 0,0 l/m 0 min 0 min 6 W/m 16,1 km/h (3 Bft) 97,87 %
11.04.2021 07:22 3,8 C 3,3 C 3,4 C 99 % 1009,0 hPa 0,0 l/m 0 min 0 min 7 W/m 6,4 km/h (2 Bft) 97,87 %
11.04.2021 07:24 3,8 C 3,3 C 3,4 C 99 % 1009,1 hPa 0,0 l/m 0 min 0 min 7 W/m 16,1 km/h (3 Bft) 97,87 %
11.04.2021 07:26 3,7 C 3,3 C 3,4 C 99 % 1009,2 hPa 0,0 l/m 0 min 0 min 8 W/m 19,3 km/h (3 Bft) 95,65 %
11.04.2021 07:28 3,7 C 3,3 C 3,4 C 99 % 1009,1 hPa 0,0 l/m 0 min 0 min 11 W/m 19,3 km/h (3 Bft) 97,87 %
11.04.2021 07:30 3,7 C 3,3 C 3,4 C 99 % 1009,0 hPa 0,0 l/m 0 min 2 min 14 W/m 16,1 km/h (3 Bft) 97,87 %
11.04.2021 07:32 3,7 C 3,3 C 3,4 C 99 % 1009,0 hPa 0,0 l/m 0 min 2 min 18 W/m 12,9 km/h (3 Bft) 97,87 %
11.04.2021 07:34 3,6 C 3,3 C 3,4 C 99 % 1009,1 hPa 0,0 l/m 0 min 0 min 16 W/m 9,7 km/h (2 Bft) 95,74 %
11.04.2021 07:36 3,6 C 3,3 C 3,4 C 98 % 1009,2 hPa 0,0 l/m 0 min 2 min 16 W/m 12,9 km/h (3 Bft) 97,87 %
11.04.2021 07:38 3,6 C 3,3 C 3,4 C 98 % 1009,3 hPa 0,0 l/m 0 min 2 min 15 W/m 16,1 km/h (3 Bft) 97,83 %
11.04.2021 07:40 3,6 C 3,3 C 3,4 C 98 % 1009,3 hPa 0,0 l/m 0 min 2 min 16 W/m 9,7 km/h (2 Bft) 95,74 %
11.04.2021 07:42 3,6 C 3,3 C 3,4 C 98 % 1009,4 hPa 0,0 l/m 0 min 2 min 17 W/m 16,1 km/h (3 Bft) 95,74 %
11.04.2021 07:44 3,6 C 3,3 C 3,4 C 98 % 1009,4 hPa 0,0 l/m 0 min 2 min 20 W/m 9,7 km/h (2 Bft) 97,87 %
11.04.2021 07:46 3,6 C 3,3 C 3,4 C 98 % 1009,5 hPa 0,0 l/m 0 min 2 min 19 W/m 12,9 km/h (3 Bft) 97,87 %
11.04.2021 07:48 3,6 C 3,3 C 3,4 C 98 % 1009,5 hPa 0,0 l/m 0 min 2 min 18 W/m 12,9 km/h (3 Bft) 95,65 %
11.04.2021 07:50 3,6 C 3,3 C 3,4 C 98 % 1009,5 hPa 0,0 l/m 0 min 2 min 18 W/m 16,1 km/h (3 Bft) 95,74 %
11.04.2021 07:52 3,6 C 3,3 C 3,4 C 98 % 1009,5 hPa 0,0 l/m 0 min 2 min 21 W/m 12,9 km/h (3 Bft) 95,74 %
11.04.2021 07:54 3,6 C 3,3 C 3,4 C 98 % 1009,5 hPa 0,2 l/m 0 min 2 min 21 W/m 19,3 km/h (3 Bft) 93,62 %
11.04.2021 07:56 3,5 C 3,3 C 3,4 C 98 % 1009,5 hPa 0,0 l/m 0 min 2 min 23 W/m 12,9 km/h (3 Bft) 97,87 %
11.04.2021 07:58 3,5 C 3,3 C 3,4 C 98 % 1009,5 hPa 0,0 l/m 0 min 2 min 21 W/m 19,3 km/h (3 Bft) 95,74 %
11.04.2021 08:00 3,5 C 2,8 C 3,4 C 98 % 1009,5 hPa 0,0 l/m 0 min 2 min 19 W/m 16,1 km/h (3 Bft) 95,65 %
11.04.2021 08:02 3,5 C 3,3 C 3,4 C 98 % 1009,5 hPa 0,0 l/m 0 min 2 min 19 W/m 16,1 km/h (3 Bft) 97,87 %
11.04.2021 08:04 3,5 C 2,8 C 3,4 C 98 % 1009,6 hPa 0,0 l/m 0 min 2 min 21 W/m 19,3 km/h (3 Bft) 95,74 %
11.04.2021 08:06 3,5 C 3,3 C 3,4 C 98 % 1009,6 hPa 0,0 l/m 0 min 2 min 26 W/m 19,3 km/h (3 Bft) 95,74 %
11.04.2021 08:08 3,5 C 3,3 C 3,4 C 98 % 1009,5 hPa 0,0 l/m 0 min 2 min 30 W/m 12,9 km/h (3 Bft) 95,74 %
11.04.2021 08:10 3,5 C 3,3 C 3,4 C 98 % 1009,6 hPa 0,0 l/m 0 min 2 min 36 W/m 12,9 km/h (3 Bft) 95,74 %
11.04.2021 08:12 3,5 C 3,3 C 3,4 C 99 % 1009,6 hPa 0,0 l/m 0 min 2 min 42 W/m 16,1 km/h (3 Bft) 93,48 %
11.04.2021 08:14 3,5 C 3,3 C 3,4 C 99 % 1009,5 hPa 0,0 l/m 0 min 2 min 48 W/m 16,1 km/h (3 Bft) 93,62 %
11.04.2021 08:16 3,5 C 3,3 C 3,4 C 99 % 1009,6 hPa 0,0 l/m 0 min 2 min 54 W/m 16,1 km/h (3 Bft) 95,74 %
11.04.2021 08:18 3,5 C 3,3 C 3,4 C 99 % 1009,7 hPa 0,2 l/m 0 min 2 min 62 W/m 9,7 km/h (2 Bft) 95,74 %
11.04.2021 08:20 3,5 C 3,3 C 3,4 C 99 % 1009,8 hPa 0,0 l/m 0 min 2 min 70 W/m 12,9 km/h (3 Bft) 95,74 %
11.04.2021 08:22 3,5 C 3,3 C 3,4 C 99 % 1009,7 hPa 0,0 l/m 0 min 2 min 58 W/m 16,1 km/h (3 Bft) 95,74 %
11.04.2021 08:24 3,5 C 3,3 C 3,4 C 99 % 1009,8 hPa 0,0 l/m 0 min 2 min 38 W/m 12,9 km/h (3 Bft) 91,30 %
11.04.2021 08:26 3,5 C 3,3 C 3,4 C 99 % 1009,9 hPa 0,0 l/m 0 min 2 min 36 W/m 12,9 km/h (3 Bft) 93,62 %
11.04.2021 08:28 3,5 C 3,3 C 3,4 C 99 % 1009,9 hPa 0,0 l/m 0 min 2 min 39 W/m 12,9 km/h (3 Bft) 93,62 %
11.04.2021 08:30 3,5 C 3,3 C 3,4 C 99 % 1010,0 hPa 0,0 l/m 0 min 2 min 39 W/m 9,7 km/h (2 Bft) 93,62 %
11.04.2021 08:32 3,5 C 3,3 C 3,4 C 99 % 1010,0 hPa 0,0 l/m 0 min 2 min 31 W/m 12,9 km/h (3 Bft) 93,62 %
11.04.2021 08:34 3,5 C 3,3 C 3,4 C 99 % 1010,0 hPa 0,0 l/m 0 min 2 min 27 W/m 12,9 km/h (3 Bft) 95,74 %
11.04.2021 08:36 3,5 C 3,3 C 3,4 C 99 % 1010,0 hPa 0,0 l/m 0 min 2 min 25 W/m 9,7 km/h (2 Bft) 95,65 %
11.04.2021 08:38 3,5 C 3,3 C 3,4 C 99 % 1010,1 hPa 0,2 l/m 0 min 2 min 22 W/m 6,4 km/h (2 Bft) 95,74 %
11.04.2021 08:40 3,5 C 3,3 C 3,4 C 99 % 1010,1 hPa 0,0 l/m 0 min 2 min 22 W/m 9,7 km/h (2 Bft) 96,23 %
11.04.2021 08:42 3,5 C 3,3 C 3,4 C 99 % 1010,2 hPa 0,0 l/m 0 min 2 min 24 W/m 12,9 km/h (3 Bft) 93,62 %
11.04.2021 08:44 3,5 C 3,3 C 3,4 C 99 % 1010,3 hPa 0,0 l/m 0 min 2 min 26 W/m 12,9 km/h (3 Bft) 95,74 %
11.04.2021 08:46 3,5 C 3,3 C 3,4 C 99 % 1010,4 hPa 0,0 l/m 0 min 2 min 29 W/m 9,7 km/h (2 Bft) 95,65 %
11.04.2021 08:48 3,5 C 3,3 C 3,4 C 99 % 1010,4 hPa 0,0 l/m 0 min 2 min 30 W/m 6,4 km/h (2 Bft) 91,49 %
11.04.2021 08:50 3,5 C 3,3 C 3,4 C 99 % 1010,4 hPa 0,0 l/m 0 min 2 min 28 W/m 9,7 km/h (2 Bft) 93,62 %
11.04.2021 08:52 3,5 C 3,3 C 3,4 C 99 % 1010,4 hPa 0,0 l/m 0 min 2 min 31 W/m 12,9 km/h (3 Bft) 95,74 %
11.04.2021 08:54 3,5 C 3,3 C 3,4 C 99 % 1010,4 hPa 0,0 l/m 0 min 2 min 27 W/m 16,1 km/h (3 Bft) 95,74 %
11.04.2021 08:56 3,5 C 3,3 C 3,4 C 99 % 1010,5 hPa 0,0 l/m 0 min 2 min 26 W/m 9,7 km/h (2 Bft) 97,87 %
11.04.2021 08:58 3,5 C 3,3 C 3,4 C 99 % 1010,5 hPa 0,0 l/m 0 min 2 min 26 W/m 12,9 km/h (3 Bft) 95,65 %
11.04.2021 09:00 3,5 C 3,3 C 3,4 C 99 % 1010,5 hPa 0,0 l/m 0 min 0 min 30 W/m 12,9 km/h (3 Bft) 92,68 %
11.04.2021 09:02 3,5 C 3,3 C 3,4 C 99 % 1010,5 hPa 0,0 l/m 0 min 2 min 38 W/m 19,3 km/h (3 Bft) 94,34 %
11.04.2021 09:04 3,5 C 3,3 C 3,4 C 99 % 1010,4 hPa 0,0 l/m 0 min 2 min 40 W/m 16,1 km/h (3 Bft) 93,62 %
11.04.2021 09:06 3,5 C 3,3 C 3,4 C 99 % 1010,3 hPa 0,0 l/m 0 min 2 min 49 W/m 22,5 km/h (4 Bft) 95,12 %
11.04.2021 09:08 3,5 C 3,3 C 3,4 C 99 % 1010,3 hPa 0,0 l/m 0 min 2 min 54 W/m 19,3 km/h (3 Bft) 94,44 %
11.04.2021 09:10 3,5 C 3,3 C 3,4 C 99 % 1010,3 hPa 0,0 l/m 0 min 2 min 48 W/m 16,1 km/h (3 Bft) 95,65 %
11.04.2021 09:12 3,5 C 3,3 C 3,4 C 99 % 1010,3 hPa 0,0 l/m 0 min 0 min 46 W/m 16,1 km/h (3 Bft) 95,74 %
11.04.2021 09:14 3,5 C 3,3 C 3,4 C 99 % 1010,2 hPa 0,0 l/m 0 min 2 min 44 W/m 12,9 km/h (3 Bft) 95,74 %
11.04.2021 09:16 3,5 C 3,3 C 3,4 C 99 % 1010,2 hPa 0,0 l/m 0 min 0 min 42 W/m 16,1 km/h (3 Bft) 97,87 %
11.04.2021 09:18 3,5 C 3,3 C 3,4 C 99 % 1010,3 hPa 0,0 l/m 0 min 0 min 46 W/m 16,1 km/h (3 Bft) 91,49 %
11.04.2021 09:20 3,5 C 3,3 C 3,4 C 99 % 1010,2 hPa 0,0 l/m 0 min 2 min 49 W/m 16,1 km/h (3 Bft) 97,87 %
11.04.2021 09:22 3,6 C 3,3 C 3,4 C 99 % 1010,2 hPa 0,0 l/m 0 min 2 min 53 W/m 19,3 km/h (3 Bft) 94,87 %
11.04.2021 09:24 3,6 C 3,3 C 3,4 C 99 % 1010,3 hPa 0,0 l/m 0 min 2 min 56 W/m 19,3 km/h (3 Bft) 97,87 %
11.04.2021 09:26 3,6 C 3,3 C 3,4 C 99 % 1010,3 hPa 0,0 l/m 0 min 2 min 46 W/m 22,5 km/h (4 Bft) 95,74 %
11.04.2021 09:28 3,6 C 3,3 C 3,4 C 99 % 1010,3 hPa 0,0 l/m 0 min 2 min 35 W/m 12,9 km/h (3 Bft) 95,74 %
11.04.2021 09:30 3,6 C 3,3 C 3,4 C 99 % 1010,4 hPa 0,0 l/m 0 min 0 min 38 W/m 16,1 km/h (3 Bft) 97,87 %
11.04.2021 09:32 3,6 C 3,3 C 3,4 C 99 % 1010,5 hPa 0,0 l/m 0 min 0 min 38 W/m 9,7 km/h (2 Bft) 95,74 %
11.04.2021 09:34 3,6 C 3,3 C 3,4 C 99 % 1010,4 hPa 0,0 l/m 0 min 0 min 41 W/m 12,9 km/h (3 Bft) 97,87 %
11.04.2021 09:36 3,6 C 3,3 C 3,4 C 99 % 1010,5 hPa 0,0 l/m 0 min 0 min 43 W/m 12,9 km/h (3 Bft) 97,83 %
11.04.2021 09:38 3,6 C 3,3 C 3,4 C 99 % 1010,5 hPa 0,0 l/m 0 min 0 min 41 W/m 22,5 km/h (4 Bft) 97,87 %
11.04.2021 09:40 3,6 C 3,3 C 3,4 C 99 % 1010,6 hPa 0,0 l/m 0 min 0 min 39 W/m 16,1 km/h (3 Bft) 97,87 %
11.04.2021 09:42 3,6 C 3,3 C 3,4 C 99 % 1010,6 hPa 0,0 l/m 0 min 0 min 33 W/m 9,7 km/h (2 Bft) 97,87 %
11.04.2021 09:44 3,6 C 3,3 C 3,4 C 99 % 1010,6 hPa 0,0 l/m 0 min 2 min 32 W/m 9,7 km/h (2 Bft) 100,00 %
11.04.2021 09:46 3,6 C 3,3 C 3,4 C 99 % 1010,7 hPa 0,0 l/m 0 min 2 min 37 W/m 12,9 km/h (3 Bft) 100,00 %
11.04.2021 09:48 3,6 C 3,3 C 3,4 C 99 % 1010,6 hPa 0,0 l/m 0 min 2 min 42 W/m 16,1 km/h (3 Bft) 100,00 %
11.04.2021 09:50 3,6 C 3,3 C 3,4 C 99 % 1010,7 hPa 0,0 l/m 0 min 2 min 36 W/m 16,1 km/h (3 Bft) 100,00 %
11.04.2021 09:52 3,7 C 3,3 C 3,4 C 99 % 1010,9 hPa 0,0 l/m 0 min 2 min 35 W/m 9,7 km/h (2 Bft) 97,87 %
11.04.2021 09:54 3,7 C 3,3 C 3,4 C 99 % 1010,8 hPa 0,0 l/m 0 min 2 min 35 W/m 6,4 km/h (2 Bft) 100,00 %
11.04.2021 09:56 3,7 C 3,3 C 3,4 C 99 % 1010,8 hPa 0,2 l/m 0 min 2 min 37 W/m 12,9 km/h (3 Bft) 97,87 %
11.04.2021 09:58 3,7 C 3,9 C 3,4 C 99 % 1010,8 hPa 0,0 l/m 0 min 2 min 38 W/m 16,1 km/h (3 Bft) 100,00 %
11.04.2021 10:00 3,7 C 3,3 C 3,4 C 99 % 1010,8 hPa 0,0 l/m 0 min 2 min 45 W/m 12,9 km/h (3 Bft) 100,00 %
11.04.2021 10:02 3,7 C 3,3 C 3,4 C 99 % 1010,8 hPa 0,0 l/m 0 min 2 min 49 W/m 22,5 km/h (4 Bft) 95,74 %
11.04.2021 10:04 3,7 C 3,3 C 3,4 C 99 % 1010,9 hPa 0,0 l/m 0 min 2 min 53 W/m 25,7 km/h (4 Bft) 100,00 %
11.04.2021 10:06 3,7 C 3,3 C 3,4 C 99 % 1011,1 hPa 0,0 l/m 0 min 2 min 60 W/m 25,7 km/h (4 Bft) 100,00 %
11.04.2021 10:08 3,7 C 3,3 C 3,4 C 99 % 1011,1 hPa 0,0 l/m 0 min 2 min 62 W/m 12,9 km/h (3 Bft) 100,00 %
11.04.2021 10:10 3,7 C 3,3 C 3,4 C 99 % 1011,0 hPa 0,0 l/m 0 min 2 min 66 W/m 16,1 km/h (3 Bft) 97,87 %
11.04.2021 10:12 3,7 C 3,9 C 3,4 C 99 % 1011,0 hPa 0,0 l/m 0 min 2 min 59 W/m 22,5 km/h (4 Bft) 97,87 %
11.04.2021 10:14 3,7 C 3,9 C 3,4 C 99 % 1011,0 hPa 0,0 l/m 0 min 2 min 49 W/m 12,9 km/h (3 Bft) 100,00 %
11.04.2021 10:16 3,8 C 3,9 C 3,4 C 99 % 1011,1 hPa 0,0 l/m 0 min 2 min 46 W/m 16,1 km/h (3 Bft) 97,56 %
11.04.2021 10:18 3,8 C 3,9 C 3,4 C 99 % 1011,1 hPa 0,0 l/m 0 min 2 min 52 W/m 19,3 km/h (3 Bft) 100,00 %
11.04.2021 10:20 3,8 C 3,9 C 3,4 C 99 % 1011,1 hPa 0,0 l/m 0 min 2 min 62 W/m 16,1 km/h (3 Bft) 95,74 %
11.04.2021 10:22 3,7 C 3,9 C 3,4 C 99 % 1011,2 hPa 0,0 l/m 0 min 2 min 66 W/m 16,1 km/h (3 Bft) 97,83 %
11.04.2021 10:24 3,8 C 3,9 C 3,4 C 99 % 1011,2 hPa 0,0 l/m 0 min 2 min 65 W/m 16,1 km/h (3 Bft) 100,00 %
11.04.2021 10:26 3,8 C 3,9 C 3,4 C 99 % 1011,3 hPa 0,0 l/m 0 min 2 min 68 W/m 16,1 km/h (3 Bft) 97,87 %
11.04.2021 10:28 3,8 C 3,9 C 3,4 C 99 % 1011,3 hPa 0,2 l/m 0 min 2 min 63 W/m 9,7 km/h (2 Bft) 97,87 %
11.04.2021 10:30 3,8 C 3,9 C 3,9 C 99 % 1011,4 hPa 0,0 l/m 0 min 2 min 54 W/m 9,7 km/h (2 Bft) 95,74 %
11.04.2021 10:32 3,8 C 3,9 C 3,9 C 99 % 1011,5 hPa 0,0 l/m 0 min 2 min 43 W/m 6,4 km/h (2 Bft) 96,15 %
11.04.2021 10:34 3,8 C 3,9 C 3,9 C 99 % 1011,5 hPa 0,0 l/m 0 min 2 min 41 W/m 9,7 km/h (2 Bft) 97,87 %
11.04.2021 10:36 3,8 C 3,9 C 3,9 C 99 % 1011,6 hPa 0,0 l/m 0 min 2 min 53 W/m 9,7 km/h (2 Bft) 97,87 %
11.04.2021 10:38 3,9 C 3,9 C 3,9 C 99 % 1011,6 hPa 0,0 l/m 0 min 2 min 49 W/m 9,7 km/h (2 Bft) 97,92 %
11.04.2021 10:40 3,9 C 3,9 C 3,9 C 99 % 1011,6 hPa 0,0 l/m 0 min 2 min 46 W/m 22,5 km/h (4 Bft) 95,74 %
11.04.2021 10:42 3,9 C 3,3 C 3,4 C 99 % 1011,6 hPa 0,0 l/m 0 min 2 min 49 W/m 25,7 km/h (4 Bft) 97,87 %
11.04.2021 10:44 3,8 C 3,3 C 3,4 C 99 % 1011,6 hPa 0,0 l/m 0 min 2 min 62 W/m 16,1 km/h (3 Bft) 95,65 %
11.04.2021 10:46 3,8 C 3,9 C 3,4 C 99 % 1011,6 hPa 0,0 l/m 0 min 2 min 84 W/m 16,1 km/h (3 Bft) 97,87 %
11.04.2021 10:48 3,8 C 3,9 C 3,9 C 99 % 1011,6 hPa 0,0 l/m 0 min 2 min 89 W/m 19,3 km/h (3 Bft) 93,62 %
11.04.2021 10:50 3,8 C 3,9 C 3,9 C 99 % 1011,7 hPa 0,0 l/m 0 min 2 min 72 W/m 16,1 km/h (3 Bft) 97,87 %
11.04.2021 10:52 3,8 C 3,9 C 3,4 C 99 % 1011,8 hPa 0,0 l/m 0 min 2 min 74 W/m 16,1 km/h (3 Bft) 97,87 %
11.04.2021 10:54 3,8 C 3,9 C 3,4 C 99 % 1011,8 hPa 0,2 l/m 0 min 2 min 81 W/m 19,3 km/h (3 Bft) 93,62 %
11.04.2021 10:56 3,8 C 3,9 C 3,9 C 99 % 1011,8 hPa 0,0 l/m 0 min 2 min 87 W/m 16,1 km/h (3 Bft) 97,83 %
11.04.2021 10:58 3,8 C 3,9 C 3,9 C 99 % 1011,8 hPa 0,0 l/m 0 min 2 min 89 W/m 16,1 km/h (3 Bft) 95,74 %
11.04.2021 11:00 3,9 C 3,9 C 3,9 C 99 % 1011,8 hPa 0,0 l/m 0 min 2 min 88 W/m 16,1 km/h (3 Bft) 97,87 %
11.04.2021 11:02 3,9 C 3,9 C 3,9 C 99 % 1011,8 hPa 0,0 l/m 0 min 2 min 90 W/m 22,5 km/h (4 Bft) 97,92 %
11.04.2021 11:04 3,9 C 3,9 C 3,9 C 99 % 1011,9 hPa 0,0 l/m 0 min 2 min 85 W/m 25,7 km/h (4 Bft) 97,87 %
11.04.2021 11:06 3,8 C 3,9 C 3,4 C 99 % 1011,9 hPa 0,0 l/m 0 min 2 min 75 W/m 22,5 km/h (4 Bft) 97,83 %
11.04.2021 11:08 3,8 C 3,9 C 3,4 C 99 % 1011,8 hPa 0,0 l/m 0 min 2 min 74 W/m 16,1 km/h (3 Bft) 97,87 %
11.04.2021 11:10 3,8 C 3,9 C 3,4 C 99 % 1011,9 hPa 0,0 l/m 0 min 2 min 65 W/m 22,5 km/h (4 Bft) 97,87 %
11.04.2021 11:12 3,8 C 3,9 C 3,4 C 99 % 1011,9 hPa 0,0 l/m 0 min 2 min 62 W/m 25,7 km/h (4 Bft) 97,87 %
11.04.2021 11:14 3,8 C 3,9 C 3,4 C 99 % 1012,0 hPa 0,0 l/m 0 min 2 min 64 W/m 22,5 km/h (4 Bft) 100,00 %
11.04.2021 11:16 3,8 C 3,9 C 3,4 C 99 % 1012,0 hPa 0,0 l/m 0 min 2 min 74 W/m 16,1 km/h (3 Bft) 100,00 %
11.04.2021 11:18 3,8 C 3,9 C 3,4 C 99 % 1012,0 hPa 0,0 l/m 0 min 2 min 86 W/m 22,5 km/h (4 Bft) 97,83 %
11.04.2021 11:20 3,8 C 3,9 C 3,4 C 99 % 1012,1 hPa 0,0 l/m 0 min 2 min 73 W/m 12,9 km/h (3 Bft) 97,87 %
11.04.2021 11:22 3,8 C 3,9 C 3,9 C 99 % 1012,0 hPa 0,0 l/m 0 min 0 min 68 W/m 9,7 km/h (2 Bft) 100,00 %
11.04.2021 11:24 3,8 C 3,9 C 3,9 C 99 % 1012,1 hPa 0,0 l/m 0 min 2 min 59 W/m 12,9 km/h (3 Bft) 100,00 %
11.04.2021 11:26 3,9 C 3,9 C 3,9 C 98 % 1012,1 hPa 0,0 l/m 0 min 2 min 53 W/m 9,7 km/h (2 Bft) 100,00 %
11.04.2021 11:28 3,9 C 3,9 C 3,4 C 98 % 1012,2 hPa 0,0 l/m 0 min 2 min 52 W/m 16,1 km/h (3 Bft) 100,00 %
11.04.2021 11:30 3,9 C 3,9 C 3,4 C 98 % 1012,2 hPa 0,0 l/m 0 min 2 min 48 W/m 12,9 km/h (3 Bft) 100,00 %
11.04.2021 11:32 3,9 C 3,9 C 3,4 C 98 % 1012,2 hPa 0,0 l/m 0 min 2 min 46 W/m 12,9 km/h (3 Bft) 100,00 %
11.04.2021 11:34 3,9 C 3,9 C 3,4 C 98 % 1012,1 hPa 0,0 l/m 0 min 2 min 40 W/m 12,9 km/h (3 Bft) 97,87 %
11.04.2021 11:36 3,9 C 3,9 C 3,4 C 98 % 1012,3 hPa 0,0 l/m 0 min 2 min 42 W/m 12,9 km/h (3 Bft) 95,74 %
11.04.2021 11:38 3,9 C 3,9 C 3,4 C 98 % 1012,2 hPa 0,0 l/m 0 min 2 min 58 W/m 12,9 km/h (3 Bft) 95,74 %
11.04.2021 11:40 3,9 C 3,9 C 3,9 C 98 % 1012,3 hPa 0,0 l/m 0 min 2 min 89 W/m 6,4 km/h (2 Bft) 97,87 %
11.04.2021 11:42 3,9 C 3,9 C 3,9 C 98 % 1012,3 hPa 0,0 l/m 0 min 2 min 112 W/m 12,9 km/h (3 Bft) 95,65 %
11.04.2021 11:44 3,9 C 4,4 C 3,9 C 98 % 1012,4 hPa 0,0 l/m 0 min 2 min 137 W/m 16,1 km/h (3 Bft) 97,87 %
11.04.2021 11:46 3,9 C 4,4 C 3,9 C 98 % 1012,4 hPa 0,0 l/m 0 min 2 min 161 W/m 19,3 km/h (3 Bft) 95,74 %
11.04.2021 11:48 3,9 C 4,4 C 3,9 C 98 % 1012,4 hPa 0,0 l/m 0 min 0 min 157 W/m 16,1 km/h (3 Bft) 97,87 %
11.04.2021 11:50 4,0 C 4,4 C 3,9 C 98 % 1012,4 hPa 0,0 l/m 0 min 2 min 163 W/m 16,1 km/h (3 Bft) 97,87 %
11.04.2021 11:52 4,0 C 4,4 C 3,9 C 98 % 1012,4 hPa 0,0 l/m 0 min 2 min 166 W/m 9,7 km/h (2 Bft) 95,74 %
11.04.2021 11:54 4,0 C 5,0 C 3,9 C 98 % 1012,4 hPa 0,0 l/m 0 min 2 min 159 W/m 19,3 km/h (3 Bft) 95,65 %
11.04.2021 11:56 4,0 C 5,0 C 3,9 C 98 % 1012,4 hPa 0,0 l/m 0 min 2 min 133 W/m 12,9 km/h (3 Bft) 97,87 %
11.04.2021 11:58 4,1 C 5,0 C 3,9 C 98 % 1012,5 hPa 0,0 l/m 0 min 2 min 114 W/m 9,7 km/h (2 Bft) 97,87 %
11.04.2021 12:00 4,1 C 4,4 C 3,9 C 98 % 1012,5 hPa 0,0 l/m 0 min 2 min 112 W/m 16,1 km/h (3 Bft) 97,37 %
11.04.2021 12:02 4,1 C 4,4 C 3,9 C 98 % 1012,5 hPa 0,0 l/m 0 min 2 min 105 W/m 19,3 km/h (3 Bft) 97,87 %
11.04.2021 12:04 4,1 C 4,4 C 3,9 C 98 % 1012,6 hPa 0,0 l/m 0 min 2 min 92 W/m 16,1 km/h (3 Bft) 97,87 %
11.04.2021 12:08 4,1 C 4,4 C 3,9 C 98 % 1012,6 hPa 0,2 l/m 0 min 4 min 81 W/m 16,1 km/h (3 Bft) 97,87 %
11.04.2021 12:10 4,1 C 4,4 C 3,9 C 98 % 1012,6 hPa 0,0 l/m 0 min 2 min 78 W/m 16,1 km/h (3 Bft) 97,87 %
11.04.2021 12:12 4,1 C 4,4 C 3,9 C 98 % 1012,6 hPa 0,0 l/m 0 min 2 min 76 W/m 6,4 km/h (2 Bft) 95,74 %
11.04.2021 12:14 4,1 C 4,4 C 3,9 C 98 % 1012,6 hPa 0,0 l/m 0 min 2 min 86 W/m 6,4 km/h (2 Bft) 97,87 %
11.04.2021 12:16 4,2 C 4,4 C 3,9 C 98 % 1012,7 hPa 0,0 l/m 0 min 2 min 81 W/m 9,7 km/h (2 Bft) 97,87 %
11.04.2021 12:18 4,2 C 4,4 C 3,9 C 98 % 1012,7 hPa 0,0 l/m 0 min 2 min 78 W/m 19,3 km/h (3 Bft) 97,87 %
11.04.2021 12:20 4,3 C 4,4 C 3,9 C 98 % 1012,8 hPa 0,0 l/m 0 min 2 min 78 W/m 19,3 km/h (3 Bft) 91,30 %
11.04.2021 12:22 4,2 C 3,9 C 3,9 C 98 % 1012,8 hPa 0,0 l/m 0 min 2 min 99 W/m 19,3 km/h (3 Bft) 97,87 %
11.04.2021 12:24 4,2 C 3,9 C 3,9 C 98 % 1012,8 hPa 0,0 l/m 0 min 2 min 92 W/m 16,1 km/h (3 Bft) 97,87 %
11.04.2021 12:26 4,2 C 3,9 C 3,9 C 98 % 1012,8 hPa 0,0 l/m 0 min 2 min 76 W/m 9,7 km/h (2 Bft) 97,87 %
11.04.2021 12:28 4,1 C 3,9 C 3,9 C 98 % 1012,8 hPa 0,0 l/m 0 min 2 min 73 W/m 16,1 km/h (3 Bft) 97,87 %
11.04.2021 12:30 4,1 C 3,9 C 3,9 C 98 % 1012,9 hPa 0,2 l/m 0 min 2 min 81 W/m 19,3 km/h (3 Bft) 93,62 %
11.04.2021 12:32 4,1 C 4,4 C 3,9 C 98 % 1012,9 hPa 0,0 l/m 0 min 2 min 84 W/m 16,1 km/h (3 Bft) 97,83 %
11.04.2021 12:34 4,1 C 3,9 C 3,9 C 98 % 1012,9 hPa 0,0 l/m 0 min 2 min 89 W/m 12,9 km/h (3 Bft) 97,87 %
11.04.2021 12:36 4,2 C 4,4 C 3,9 C 98 % 1012,9 hPa 0,0 l/m 0 min 2 min 99 W/m 9,7 km/h (2 Bft) 95,74 %
11.04.2021 12:38 4,1 C 4,4 C 3,9 C 98 % 1013,0 hPa 0,0 l/m 0 min 2 min 87 W/m 19,3 km/h (3 Bft) 100,00 %
11.04.2021 12:40 4,1 C 3,9 C 3,9 C 98 % 1013,0 hPa 0,0 l/m 0 min 2 min 73 W/m 19,3 km/h (3 Bft) 100,00 %
11.04.2021 12:42 4,1 C 3,9 C 3,9 C 98 % 1013,0 hPa 0,0 l/m 0 min 2 min 72 W/m 19,3 km/h (3 Bft) 100,00 %
11.04.2021 12:44 4,1 C 3,9 C 3,9 C 98 % 1013,0 hPa 0,0 l/m 0 min 2 min 93 W/m 12,9 km/h (3 Bft) 100,00 %
11.04.2021 12:46 4,1 C 4,4 C 3,9 C 98 % 1013,1 hPa 0,0 l/m 0 min 2 min 107 W/m 12,9 km/h (3 Bft) 95,74 %
11.04.2021 12:48 4,1 C 4,4 C 3,9 C 98 % 1013,0 hPa 0,2 l/m 0 min 2 min 117 W/m 12,9 km/h (3 Bft) 100,00 %
11.04.2021 12:50 4,2 C 4,4 C 3,9 C 98 % 1013,0 hPa 0,0 l/m 0 min 2 min 116 W/m 16,1 km/h (3 Bft) 100,00 %
11.04.2021 12:52 4,3 C 4,4 C 3,9 C 98 % 1013,1 hPa 0,0 l/m 0 min 2 min 113 W/m 9,7 km/h (2 Bft) 97,87 %
11.04.2021 12:54 4,3 C 4,4 C 3,9 C 98 % 1013,1 hPa 0,0 l/m 0 min 2 min 102 W/m 12,9 km/h (3 Bft) 97,83 %
11.04.2021 12:56 4,3 C 4,4 C 3,9 C 97 % 1013,2 hPa 0,0 l/m 0 min 2 min 99 W/m 12,9 km/h (3 Bft) 97,87 %
11.04.2021 12:58 4,3 C 4,4 C 3,9 C 97 % 1013,2 hPa 0,0 l/m 0 min 2 min 98 W/m 12,9 km/h (3 Bft) 100,00 %
11.04.2021 13:00 4,3 C 4,4 C 3,9 C 97 % 1013,2 hPa 0,0 l/m 0 min 2 min 103 W/m 6,4 km/h (2 Bft) 97,87 %
11.04.2021 13:02 4,4 C 4,4 C 3,9 C 97 % 1013,1 hPa 0,2 l/m 0 min 2 min 105 W/m 9,7 km/h (2 Bft) 97,87 %
11.04.2021 13:04 4,4 C 4,4 C 4,5 C 97 % 1013,1 hPa 0,0 l/m 0 min 2 min 112 W/m 12,9 km/h (3 Bft) 97,87 %
11.04.2021 13:06 4,4 C 4,4 C 4,5 C 97 % 1013,1 hPa 0,0 l/m 0 min 2 min 128 W/m 9,7 km/h (2 Bft) 100,00 %
11.04.2021 13:08 4,4 C 4,4 C 4,5 C 98 % 1013,1 hPa 0,0 l/m 0 min 2 min 149 W/m 9,7 km/h (2 Bft) 100,00 %
11.04.2021 13:10 4,5 C 5,0 C 4,5 C 98 % 1013,2 hPa 0,0 l/m 0 min 2 min 176 W/m 12,9 km/h (3 Bft) 97,87 %
11.04.2021 13:12 4,5 C 5,0 C 4,5 C 98 % 1013,1 hPa 0,0 l/m 0 min 2 min 192 W/m 9,7 km/h (2 Bft) 95,74 %
11.04.2021 13:14 4,5 C 5,0 C 4,5 C 98 % 1013,1 hPa 0,0 l/m 0 min 2 min 174 W/m 19,3 km/h (3 Bft) 95,74 %
11.04.2021 13:16 4,5 C 5,0 C 4,5 C 98 % 1013,1 hPa 0,0 l/m 0 min 2 min 146 W/m 12,9 km/h (3 Bft) 97,87 %
11.04.2021 13:18 4,6 C 5,0 C 4,5 C 97 % 1013,3 hPa 0,0 l/m 0 min 2 min 134 W/m 3,2 km/h (1 Bft) 97,83 %
11.04.2021 13:20 4,6 C 5,0 C 4,5 C 97 % 1013,3 hPa 0,0 l/m 0 min 2 min 133 W/m 9,7 km/h (2 Bft) 97,87 %
11.04.2021 13:22 4,6 C 5,0 C 4,5 C 97 % 1013,3 hPa 0,0 l/m 0 min 2 min 133 W/m 12,9 km/h (3 Bft) 97,87 %
11.04.2021 13:24 4,6 C 5,0 C 4,5 C 97 % 1013,4 hPa 0,0 l/m 0 min 2 min 134 W/m 16,1 km/h (3 Bft) 97,87 %
11.04.2021 13:26 4,6 C 5,0 C 4,5 C 97 % 1013,4 hPa 0,0 l/m 0 min 2 min 135 W/m 16,1 km/h (3 Bft) 97,92 %
11.04.2021 13:28 4,6 C 4,4 C 4,5 C 97 % 1013,4 hPa 0,0 l/m 0 min 2 min 131 W/m 19,3 km/h (3 Bft) 97,87 %
11.04.2021 13:30 4,6 C 4,4 C 4,5 C 97 % 1013,5 hPa 0,0 l/m 0 min 2 min 113 W/m 19,3 km/h (3 Bft) 97,83 %
11.04.2021 13:32 4,6 C 4,4 C 3,9 C 97 % 1013,6 hPa 0,0 l/m 0 min 2 min 94 W/m 22,5 km/h (4 Bft) 97,87 %
11.04.2021 13:34 4,6 C 4,4 C 3,9 C 97 % 1013,6 hPa 0,0 l/m 0 min 2 min 96 W/m 12,9 km/h (3 Bft) 93,62 %
11.04.2021 13:36 4,6 C 4,4 C 3,9 C 97 % 1013,6 hPa 0,0 l/m 0 min 2 min 88 W/m 9,7 km/h (2 Bft) 97,87 %
11.04.2021 13:38 4,6 C 4,4 C 3,9 C 97 % 1013,6 hPa 0,0 l/m 0 min 2 min 83 W/m 9,7 km/h (2 Bft) 95,74 %
11.04.2021 13:40 4,6 C 4,4 C 4,5 C 97 % 1013,7 hPa 0,0 l/m 0 min 2 min 86 W/m 6,4 km/h (2 Bft) 97,87 %
11.04.2021 13:42 4,6 C 4,4 C 4,5 C 97 % 1013,7 hPa 0,0 l/m 0 min 2 min 93 W/m 12,9 km/h (3 Bft) 97,83 %
11.04.2021 13:44 4,6 C 4,4 C 4,5 C 97 % 1013,7 hPa 0,0 l/m 0 min 2 min 101 W/m 9,7 km/h (2 Bft) 95,74 %
11.04.2021 13:46 4,6 C 4,4 C 4,5 C 97 % 1013,7 hPa 0,0 l/m 0 min 2 min 113 W/m 16,1 km/h (3 Bft) 97,87 %
11.04.2021 13:48 4,6 C 4,4 C 4,5 C 97 % 1013,6 hPa 0,0 l/m 0 min 2 min 128 W/m 12,9 km/h (3 Bft) 97,87 %
11.04.2021 13:50 4,6 C 4,4 C 4,5 C 97 % 1013,7 hPa 0,0 l/m 0 min 2 min 146 W/m 22,5 km/h (4 Bft) 97,87 %
11.04.2021 13:52 4,6 C 5,0 C 4,5 C 97 % 1013,8 hPa 0,0 l/m 0 min 2 min 163 W/m 12,9 km/h (3 Bft) 97,87 %
11.04.2021 13:54 4,6 C 5,0 C 4,5 C 97 % 1013,9 hPa 0,0 l/m 0 min 2 min 165 W/m 16,1 km/h (3 Bft) 97,83 %
11.04.2021 13:56 4,7 C 5,0 C 4,5 C 96 % 1013,8 hPa 0,0 l/m 0 min 2 min 147 W/m 12,9 km/h (3 Bft) 100,00 %
11.04.2021 13:58 4,7 C 5,0 C 4,5 C 96 % 1013,9 hPa 0,0 l/m 0 min 2 min 132 W/m 16,1 km/h (3 Bft) 100,00 %
11.04.2021 14:00 4,8 C 5,0 C 4,5 C 96 % 1013,9 hPa 0,0 l/m 0 min 2 min 130 W/m 12,9 km/h (3 Bft) 97,87 %
11.04.2021 14:02 4,8 C 5,0 C 4,5 C 96 % 1013,9 hPa 0,0 l/m 0 min 2 min 134 W/m 25,7 km/h (4 Bft) 100,00 %
11.04.2021 14:04 4,8 C 5,0 C 4,5 C 96 % 1013,9 hPa 0,0 l/m 0 min 2 min 128 W/m 9,7 km/h (2 Bft) 100,00 %
11.04.2021 14:06 4,7 C 5,0 C 4,5 C 96 % 1014,0 hPa 0,0 l/m 0 min 2 min 119 W/m 9,7 km/h (2 Bft) 100,00 %
11.04.2021 14:08 4,7 C 5,0 C 4,5 C 96 % 1014,0 hPa 0,0 l/m 0 min 2 min 128 W/m 9,7 km/h (2 Bft) 98,28 %
11.04.2021 14:10 4,8 C 5,0 C 4,5 C 96 % 1014,0 hPa 0,0 l/m 0 min 2 min 138 W/m 16,1 km/h (3 Bft) 100,00 %
11.04.2021 14:12 4,8 C 5,0 C 4,5 C 96 % 1013,9 hPa 0,0 l/m 0 min 0 min 185 W/m 16,1 km/h (3 Bft) 100,00 %
11.04.2021 14:14 4,8 C 5,0 C 4,5 C 96 % 1013,9 hPa 0,0 l/m 0 min 0 min 270 W/m 16,1 km/h (3 Bft) 97,87 %
11.04.2021 14:16 4,8 C 5,6 C 5,0 C 96 % 1013,9 hPa 0,0 l/m 0 min 0 min 312 W/m 9,7 km/h (2 Bft) 100,00 %
11.04.2021 14:18 4,9 C 6,1 C 5,0 C 96 % 1014,0 hPa 0,0 l/m 0 min 0 min 289 W/m 12,9 km/h (3 Bft) 100,00 %
11.04.2021 14:20 5,0 C 6,1 C 5,0 C 96 % 1014,0 hPa 0,0 l/m 0 min 0 min 242 W/m 12,9 km/h (3 Bft) 97,87 %
11.04.2021 14:22 5,0 C 6,1 C 5,0 C 96 % 1014,0 hPa 0,0 l/m 0 min 0 min 222 W/m 16,1 km/h (3 Bft) 100,00 %
11.04.2021 14:24 5,1 C 6,1 C 5,0 C 96 % 1014,0 hPa 0,0 l/m 0 min 0 min 226 W/m 9,7 km/h (2 Bft) 100,00 %
11.04.2021 14:29 5,3 C 6,1 C 5,0 C 96 % 1013,9 hPa 0,0 l/m 0 min 0 min 252 W/m 19,3 km/h (3 Bft) 98,57 %
11.04.2021 14:30 5,3 C 6,7 C 5,0 C 96 % 1013,9 hPa 0,0 l/m 0 min 0 min 312 W/m 22,5 km/h (4 Bft) 100,00 %
11.04.2021 14:32 5,3 C 6,7 C 5,0 C 96 % 1014,0 hPa 0,0 l/m 0 min 0 min 337 W/m 16,1 km/h (3 Bft) 95,74 %
11.04.2021 14:34 5,4 C 6,7 C 5,0 C 96 % 1014,1 hPa 0,0 l/m 0 min 0 min 337 W/m 12,9 km/h (3 Bft) 88,89 %
11.04.2021 14:36 5,4 C 7,2 C 5,6 C 96 % 1014,0 hPa 0,0 l/m 0 min 0 min 340 W/m 19,3 km/h (3 Bft) 97,87 %
11.04.2021 14:38 5,5 C 7,2 C 5,6 C 95 % 1014,0 hPa 0,0 l/m 0 min 0 min 331 W/m 19,3 km/h (3 Bft) 100,00 %
11.04.2021 14:40 5,5 C 7,2 C 5,6 C 95 % 1014,0 hPa 0,0 l/m 0 min 0 min 324 W/m 16,1 km/h (3 Bft) 100,00 %
11.04.2021 14:42 5,6 C 7,2 C 5,6 C 95 % 1014,1 hPa 0,0 l/m 0 min 0 min 319 W/m 12,9 km/h (3 Bft) 100,00 %
11.04.2021 14:44 5,7 C 7,2 C 5,6 C 95 % 1014,2 hPa 0,0 l/m 0 min 0 min 343 W/m 16,1 km/h (3 Bft) 100,00 %
11.04.2021 14:46 5,8 C 7,8 C 5,6 C 95 % 1014,2 hPa 0,0 l/m 2 min 0 min 356 W/m 19,3 km/h (3 Bft) 100,00 %
11.04.2021 14:48 5,9 C 7,2 C 5,6 C 94 % 1014,2 hPa 0,0 l/m 0 min 0 min 334 W/m 29,0 km/h (5 Bft) 100,00 %
11.04.2021 14:50 5,9 C 7,2 C 5,6 C 94 % 1014,2 hPa 0,0 l/m 0 min 0 min 308 W/m 25,7 km/h (4 Bft) 100,00 %
11.04.2021 14:52 5,9 C 7,2 C 5,6 C 93 % 1014,2 hPa 0,0 l/m 0 min 0 min 310 W/m 25,7 km/h (4 Bft) 100,00 %
11.04.2021 14:54 6,0 C 7,2 C 5,6 C 93 % 1014,2 hPa 0,0 l/m 0 min 0 min 268 W/m 12,9 km/h (3 Bft) 97,87 %
11.04.2021 14:56 6,0 C 7,2 C 5,6 C 93 % 1014,2 hPa 0,0 l/m 0 min 0 min 238 W/m 22,5 km/h (4 Bft) 95,74 %
11.04.2021 14:58 6,0 C 6,7 C 5,6 C 92 % 1014,2 hPa 0,0 l/m 0 min 0 min 208 W/m 19,3 km/h (3 Bft) 97,87 %
11.04.2021 15:00 6,1 C 6,7 C 5,6 C 92 % 1014,2 hPa 0,0 l/m 0 min 0 min 183 W/m 19,3 km/h (3 Bft) 97,87 %
11.04.2021 15:02 6,1 C 6,7 C 5,6 C 92 % 1014,2 hPa 0,0 l/m 0 min 0 min 186 W/m 25,7 km/h (4 Bft) 97,87 %
11.04.2021 15:04 6,1 C 6,1 C 5,0 C 91 % 1014,2 hPa 0,0 l/m 0 min 0 min 174 W/m 22,5 km/h (4 Bft) 93,48 %
11.04.2021 15:06 6,1 C 6,1 C 5,0 C 91 % 1014,2 hPa 0,0 l/m 0 min 0 min 172 W/m 22,5 km/h (4 Bft) 97,87 %
11.04.2021 15:08 6,1 C 6,1 C 5,0 C 90 % 1014,3 hPa 0,0 l/m 0 min 0 min 154 W/m 16,1 km/h (3 Bft) 97,87 %
11.04.2021 15:10 6,1 C 6,1 C 5,0 C 90 % 1014,2 hPa 0,0 l/m 0 min 0 min 149 W/m 12,9 km/h (3 Bft) 97,14 %
11.04.2021 15:12 6,0 C 6,1 C 5,0 C 90 % 1014,3 hPa 0,0 l/m 0 min 0 min 115 W/m 12,9 km/h (3 Bft) 98,11 %
11.04.2021 15:14 6,0 C 6,1 C 5,0 C 89 % 1014,4 hPa 0,0 l/m 0 min 0 min 101 W/m 19,3 km/h (3 Bft) 97,87 %
11.04.2021 15:16 6,0 C 6,1 C 5,0 C 89 % 1014,4 hPa 0,0 l/m 0 min 0 min 115 W/m 19,3 km/h (3 Bft) 97,56 %
11.04.2021 15:18 6,0 C 6,1 C 5,0 C 89 % 1014,4 hPa 0,0 l/m 0 min 0 min 137 W/m 19,3 km/h (3 Bft) 98,08 %
11.04.2021 15:20 6,0 C 6,1 C 5,0 C 89 % 1014,5 hPa 0,0 l/m 0 min 0 min 127 W/m 19,3 km/h (3 Bft) 97,87 %
11.04.2021 15:22 6,0 C 6,1 C 5,0 C 89 % 1014,6 hPa 0,0 l/m 0 min 0 min 133 W/m 19,3 km/h (3 Bft) 97,87 %
11.04.2021 15:24 6,0 C 6,1 C 5,0 C 89 % 1014,6 hPa 0,0 l/m 0 min 0 min 135 W/m 16,1 km/h (3 Bft) 95,74 %
11.04.2021 15:26 6,0 C 6,1 C 5,0 C 89 % 1014,6 hPa 0,0 l/m 0 min 0 min 159 W/m 12,9 km/h (3 Bft) 97,87 %
11.04.2021 15:28 6,0 C 6,1 C 5,0 C 89 % 1014,7 hPa 0,0 l/m 0 min 0 min 155 W/m 19,3 km/h (3 Bft) 97,87 %
11.04.2021 15:30 6,0 C 6,1 C 5,0 C 89 % 1014,6 hPa 0,0 l/m 0 min 0 min 157 W/m 16,1 km/h (3 Bft) 97,87 %
11.04.2021 15:32 6,0 C 6,1 C 5,0 C 89 % 1014,7 hPa 0,0 l/m 0 min 0 min 127 W/m 12,9 km/h (3 Bft) 97,87 %
11.04.2021 15:34 6,0 C 6,1 C 5,0 C 89 % 1014,7 hPa 0,0 l/m 0 min 0 min 135 W/m 22,5 km/h (4 Bft) 97,87 %
11.04.2021 15:36 6,0 C 6,1 C 5,0 C 89 % 1014,7 hPa 0,0 l/m 0 min 0 min 159 W/m 16,1 km/h (3 Bft) 97,87 %
11.04.2021 15:38 6,0 C 6,1 C 5,0 C 89 % 1014,7 hPa 0,0 l/m 0 min 0 min 162 W/m 12,9 km/h (3 Bft) 97,92 %
11.04.2021 15:40 6,0 C 6,1 C 5,0 C 89 % 1014,8 hPa 0,0 l/m 0 min 0 min 151 W/m 19,3 km/h (3 Bft) 97,83 %
11.04.2021 15:42 6,1 C 6,1 C 5,0 C 89 % 1014,8 hPa 0,0 l/m 0 min 0 min 152 W/m 16,1 km/h (3 Bft) 95,74 %
11.04.2021 15:44 6,1 C 6,1 C 5,0 C 89 % 1014,7 hPa 0,0 l/m 0 min 0 min 155 W/m 32,2 km/h (5 Bft) 97,87 %
11.04.2021 15:46 6,1 C 6,1 C 5,0 C 89 % 1014,8 hPa 0,0 l/m 0 min 0 min 160 W/m 19,3 km/h (3 Bft) 97,87 %
11.04.2021 15:48 6,1 C 6,1 C 5,0 C 89 % 1014,8 hPa 0,0 l/m 0 min 0 min 156 W/m 16,1 km/h (3 Bft) 95,74 %
11.04.2021 15:50 6,1 C 6,1 C 5,0 C 89 % 1014,8 hPa 0,0 l/m 0 min 0 min 158 W/m 16,1 km/h (3 Bft) 97,87 %
11.04.2021 15:52 6,1 C 6,1 C 5,0 C 89 % 1014,8 hPa 0,0 l/m 0 min 0 min 138 W/m 19,3 km/h (3 Bft) 97,83 %
11.04.2021 15:54 6,0 C 6,1 C 5,0 C 89 % 1014,9 hPa 0,0 l/m 0 min 0 min 110 W/m 12,9 km/h (3 Bft) 100,00 %
11.04.2021 15:56 6,0 C 6,1 C 5,0 C 89 % 1014,9 hPa 0,0 l/m 0 min 0 min 103 W/m 19,3 km/h (3 Bft) 100,00 %
11.04.2021 15:58 6,0 C 5,6 C 5,0 C 88 % 1014,9 hPa 0,0 l/m 0 min 0 min 107 W/m 25,7 km/h (4 Bft) 95,74 %
11.04.2021 16:00 6,0 C 5,6 C 5,0 C 88 % 1015,0 hPa 0,0 l/m 0 min 0 min 140 W/m 19,3 km/h (3 Bft) 97,87 %
11.04.2021 16:02 6,0 C 6,1 C 5,0 C 88 % 1015,0 hPa 0,0 l/m 0 min 0 min 184 W/m 19,3 km/h (3 Bft) 97,87 %
11.04.2021 16:04 6,0 C 6,1 C 5,0 C 88 % 1015,0 hPa 0,0 l/m 0 min 0 min 206 W/m 16,1 km/h (3 Bft) 97,83 %
11.04.2021 16:06 6,0 C 6,1 C 5,0 C 88 % 1015,0 hPa 0,0 l/m 0 min 0 min 183 W/m 16,1 km/h (3 Bft) 97,87 %
11.04.2021 16:08 6,0 C 6,1 C 5,0 C 88 % 1015,0 hPa 0,0 l/m 0 min 0 min 154 W/m 12,9 km/h (3 Bft) 97,87 %
11.04.2021 16:10 6,1 C 6,1 C 5,0 C 88 % 1015,0 hPa 0,0 l/m 0 min 0 min 131 W/m 22,5 km/h (4 Bft) 95,74 %
11.04.2021 16:12 6,0 C 6,1 C 5,0 C 88 % 1015,0 hPa 0,0 l/m 0 min 0 min 126 W/m 19,3 km/h (3 Bft) 97,87 %
11.04.2021 16:14 6,0 C 6,1 C 5,0 C 87 % 1015,0 hPa 0,0 l/m 0 min 0 min 133 W/m 25,7 km/h (4 Bft) 97,87 %
11.04.2021 16:16 6,0 C 6,1 C 5,0 C 87 % 1015,0 hPa 0,0 l/m 0 min 0 min 151 W/m 22,5 km/h (4 Bft) 97,83 %
11.04.2021 16:18 6,0 C 6,1 C 5,0 C 87 % 1015,1 hPa 0,0 l/m 0 min 0 min 175 W/m 9,7 km/h (2 Bft) 97,87 %
11.04.2021 16:20 6,1 C 6,1 C 5,0 C 87 % 1015,1 hPa 0,0 l/m 0 min 0 min 176 W/m 25,7 km/h (4 Bft) 97,87 %
11.04.2021 16:22 6,0 C 6,1 C 5,0 C 87 % 1015,1 hPa 0,0 l/m 0 min 0 min 166 W/m 29,0 km/h (5 Bft) 97,87 %
11.04.2021 16:24 6,0 C 6,1 C 5,0 C 86 % 1015,1 hPa 0,0 l/m 0 min 0 min 163 W/m 16,1 km/h (3 Bft) 95,74 %
11.04.2021 16:26 6,1 C 6,1 C 5,0 C 86 % 1015,1 hPa 0,0 l/m 0 min 0 min 182 W/m 19,3 km/h (3 Bft) 97,87 %
11.04.2021 16:28 6,1 C 6,1 C 5,0 C 86 % 1015,1 hPa 0,0 l/m 0 min 0 min 208 W/m 16,1 km/h (3 Bft) 97,83 %
11.04.2021 16:30 6,1 C 6,7 C 5,0 C 86 % 1015,1 hPa 0,0 l/m 0 min 0 min 215 W/m 29,0 km/h (5 Bft) 97,87 %
11.04.2021 16:32 6,2 C 6,7 C 5,0 C 85 % 1015,1 hPa 0,0 l/m 0 min 0 min 233 W/m 22,5 km/h (4 Bft) 95,74 %
11.04.2021 16:34 6,2 C 6,7 C 5,0 C 85 % 1015,2 hPa 0,0 l/m 0 min 0 min 242 W/m 22,5 km/h (4 Bft) 97,87 %
11.04.2021 16:36 6,3 C 6,7 C 5,0 C 85 % 1015,3 hPa 0,0 l/m 0 min 0 min 220 W/m 19,3 km/h (3 Bft) 97,87 %
11.04.2021 16:38 6,4 C 6,7 C 5,0 C 86 % 1015,3 hPa 0,0 l/m 0 min 0 min 213 W/m 16,1 km/h (3 Bft) 95,65 %
11.04.2021 16:40 6,4 C 7,2 C 5,6 C 85 % 1015,2 hPa 0,0 l/m 0 min 0 min 233 W/m 16,1 km/h (3 Bft) 97,87 %
11.04.2021 16:42 6,4 C 7,2 C 5,6 C 86 % 1015,2 hPa 0,0 l/m 0 min 0 min 224 W/m 12,9 km/h (3 Bft) 97,87 %
11.04.2021 16:44 6,5 C 7,2 C 5,6 C 86 % 1015,3 hPa 0,0 l/m 0 min 0 min 221 W/m 19,3 km/h (3 Bft) 97,87 %
11.04.2021 16:46 6,5 C 7,2 C 5,6 C 85 % 1015,4 hPa 0,0 l/m 0 min 0 min 220 W/m 29,0 km/h (5 Bft) 97,87 %
11.04.2021 16:48 6,5 C 7,2 C 5,6 C 85 % 1015,4 hPa 0,0 l/m 0 min 0 min 222 W/m 19,3 km/h (3 Bft) 97,87 %
11.04.2021 16:50 6,5 C 6,7 C 5,6 C 85 % 1015,4 hPa 0,0 l/m 0 min 0 min 222 W/m 16,1 km/h (3 Bft) 100,00 %
11.04.2021 16:52 6,6 C 6,7 C 5,6 C 85 % 1015,5 hPa 0,0 l/m 0 min 0 min 216 W/m 19,3 km/h (3 Bft) 100,00 %
11.04.2021 16:54 6,6 C 6,7 C 5,6 C 85 % 1015,5 hPa 0,0 l/m 0 min 0 min 192 W/m 22,5 km/h (4 Bft) 100,00 %
11.04.2021 16:56 6,6 C 6,7 C 5,0 C 84 % 1015,5 hPa 0,0 l/m 0 min 0 min 166 W/m 29,0 km/h (5 Bft) 100,00 %
11.04.2021 16:58 6,5 C 6,7 C 5,6 C 84 % 1015,6 hPa 0,0 l/m 0 min 0 min 164 W/m 25,7 km/h (4 Bft) 100,00 %
11.04.2021 17:00 6,5 C 6,7 C 5,6 C 84 % 1015,5 hPa 0,0 l/m 0 min 0 min 155 W/m 12,9 km/h (3 Bft) 100,00 %
11.04.2021 17:02 6,6 C 6,7 C 5,6 C 84 % 1015,5 hPa 0,0 l/m 0 min 0 min 143 W/m 12,9 km/h (3 Bft) 97,83 %
11.04.2021 17:04 6,6 C 6,7 C 5,6 C 84 % 1015,5 hPa 0,0 l/m 0 min 0 min 136 W/m 22,5 km/h (4 Bft) 100,00 %
11.04.2021 17:06 6,5 C 6,7 C 5,6 C 83 % 1015,5 hPa 0,0 l/m 0 min 0 min 136 W/m 19,3 km/h (3 Bft) 100,00 %
11.04.2021 17:08 6,5 C 6,7 C 5,6 C 83 % 1015,5 hPa 0,0 l/m 0 min 0 min 144 W/m 19,3 km/h (3 Bft) 95,83 %
11.04.2021 17:10 6,5 C 6,7 C 5,6 C 83 % 1015,6 hPa 0,0 l/m 0 min 0 min 137 W/m 22,5 km/h (4 Bft) 100,00 %
11.04.2021 17:12 6,5 C 6,7 C 5,6 C 83 % 1015,6 hPa 0,0 l/m 0 min 0 min 129 W/m 19,3 km/h (3 Bft) 100,00 %
11.04.2021 17:14 6,5 C 6,7 C 5,6 C 84 % 1015,6 hPa 0,0 l/m 0 min 0 min 129 W/m 22,5 km/h (4 Bft) 100,00 %
11.04.2021 17:16 6,5 C 6,7 C 5,6 C 84 % 1015,6 hPa 0,0 l/m 0 min 0 min 130 W/m 16,1 km/h (3 Bft) 95,74 %
11.04.2021 17:18 6,5 C 6,7 C 5,6 C 84 % 1015,7 hPa 0,0 l/m 0 min 0 min 126 W/m 22,5 km/h (4 Bft) 97,87 %
11.04.2021 17:20 6,5 C 6,1 C 5,6 C 84 % 1015,8 hPa 0,0 l/m 0 min 0 min 127 W/m 29,0 km/h (5 Bft) 97,87 %
11.04.2021 17:22 6,4 C 6,1 C 5,6 C 84 % 1015,8 hPa 0,0 l/m 0 min 0 min 136 W/m 29,0 km/h (5 Bft) 97,87 %
11.04.2021 17:24 6,4 C 6,1 C 5,6 C 84 % 1015,7 hPa 0,0 l/m 0 min 0 min 150 W/m 32,2 km/h (5 Bft) 97,87 %
11.04.2021 17:26 6,4 C 6,1 C 5,6 C 84 % 1015,7 hPa 0,0 l/m 0 min 0 min 158 W/m 29,0 km/h (5 Bft) 97,83 %
11.04.2021 17:28 6,4 C 6,1 C 5,6 C 84 % 1015,8 hPa 0,0 l/m 0 min 0 min 158 W/m 19,3 km/h (3 Bft) 97,87 %
11.04.2021 17:30 6,3 C 6,1 C 5,6 C 84 % 1015,7 hPa 0,0 l/m 0 min 0 min 154 W/m 22,5 km/h (4 Bft) 100,00 %
11.04.2021 17:32 6,3 C 6,1 C 5,6 C 85 % 1015,6 hPa 0,0 l/m 0 min 0 min 148 W/m 22,5 km/h (4 Bft) 97,87 %
11.04.2021 17:34 6,3 C 6,1 C 5,6 C 85 % 1015,7 hPa 0,0 l/m 0 min 0 min 142 W/m 16,1 km/h (3 Bft) 97,87 %
11.04.2021 17:36 6,3 C 6,1 C 5,6 C 85 % 1015,7 hPa 0,0 l/m 0 min 0 min 112 W/m 19,3 km/h (3 Bft) 95,74 %
11.04.2021 17:38 6,2 C 6,1 C 5,6 C 85 % 1015,6 hPa 0,0 l/m 0 min 0 min 107 W/m 16,1 km/h (3 Bft) 97,83 %
11.04.2021 17:40 6,2 C 6,1 C 5,6 C 85 % 1015,7 hPa 0,0 l/m 0 min 0 min 123 W/m 16,1 km/h (3 Bft) 93,62 %
11.04.2021 17:42 6,1 C 6,1 C 5,6 C 85 % 1015,7 hPa 0,0 l/m 0 min 0 min 121 W/m 12,9 km/h (3 Bft) 97,87 %
11.04.2021 17:44 6,1 C 6,1 C 5,6 C 85 % 1015,7 hPa 0,0 l/m 0 min 0 min 107 W/m 16,1 km/h (3 Bft) 100,00 %
11.04.2021 17:50 6,1 C 6,1 C 5,6 C 85 % 1016,0 hPa 0,0 l/m 0 min 0 min 126 W/m 22,5 km/h (4 Bft) 95,24 %
11.04.2021 17:52 6,1 C 6,1 C 5,6 C 85 % 1016,0 hPa 0,0 l/m 0 min 0 min 136 W/m 12,9 km/h (3 Bft) 97,87 %
11.04.2021 17:54 6,1 C 6,7 C 5,6 C 85 % 1016,0 hPa 0,0 l/m 0 min 0 min 159 W/m 9,7 km/h (2 Bft) 97,87 %
11.04.2021 17:56 6,1 C 6,7 C 5,6 C 85 % 1016,0 hPa 0,0 l/m 0 min 0 min 159 W/m 16,1 km/h (3 Bft) 97,87 %
11.04.2021 17:58 6,1 C 6,7 C 5,6 C 85 % 1016,0 hPa 0,0 l/m 0 min 0 min 146 W/m 16,1 km/h (3 Bft) 97,87 %
11.04.2021 18:00 6,1 C 6,7 C 5,6 C 85 % 1016,0 hPa 0,0 l/m 0 min 0 min 136 W/m 16,1 km/h (3 Bft) 95,74 %
11.04.2021 18:02 6,1 C 6,7 C 5,6 C 85 % 1015,9 hPa 0,2 l/m 0 min 0 min 131 W/m 6,4 km/h (2 Bft) 95,65 %
11.04.2021 18:04 6,2 C 6,7 C 5,6 C 85 % 1016,1 hPa 0,0 l/m 0 min 0 min 125 W/m 9,7 km/h (2 Bft) 95,74 %
11.04.2021 18:08 6,3 C 6,7 C 5,6 C 85 % 1016,2 hPa 0,0 l/m 0 min 0 min 127 W/m 19,3 km/h (3 Bft) 95,79 %
11.04.2021 18:10 6,2 C 6,7 C 5,6 C 85 % 1016,1 hPa 0,0 l/m 0 min 0 min 128 W/m 12,9 km/h (3 Bft) 95,74 %
11.04.2021 18:12 6,3 C 6,7 C 5,6 C 85 % 1016,1 hPa 0,0 l/m 0 min 0 min 130 W/m 12,9 km/h (3 Bft) 95,65 %
11.04.2021 18:14 6,3 C 6,7 C 5,6 C 84 % 1016,1 hPa 0,0 l/m 0 min 0 min 134 W/m 19,3 km/h (3 Bft) 93,62 %
11.04.2021 18:16 6,3 C 6,7 C 5,6 C 84 % 1016,1 hPa 0,0 l/m 0 min 0 min 140 W/m 16,1 km/h (3 Bft) 91,49 %
11.04.2021 18:18 6,3 C 6,7 C 5,6 C 84 % 1016,1 hPa 0,0 l/m 0 min 0 min 140 W/m 19,3 km/h (3 Bft) 95,74 %
11.04.2021 18:20 6,3 C 6,7 C 5,6 C 84 % 1016,2 hPa 0,0 l/m 0 min 0 min 137 W/m 16,1 km/h (3 Bft) 95,74 %
11.04.2021 18:22 6,3 C 6,7 C 5,6 C 84 % 1016,2 hPa 0,0 l/m 0 min 0 min 133 W/m 16,1 km/h (3 Bft) 95,74 %
11.04.2021 18:24 6,3 C 6,7 C 5,6 C 84 % 1016,2 hPa 0,0 l/m 0 min 0 min 134 W/m 12,9 km/h (3 Bft) 93,48 %
11.04.2021 18:26 6,3 C 6,7 C 5,6 C 84 % 1016,3 hPa 0,0 l/m 0 min 0 min 130 W/m 6,4 km/h (2 Bft) 95,74 %
11.04.2021 18:28 6,3 C 6,7 C 5,6 C 84 % 1016,3 hPa 0,0 l/m 0 min 0 min 121 W/m 12,9 km/h (3 Bft) 95,74 %
11.04.2021 18:30 6,4 C 6,7 C 5,6 C 84 % 1016,4 hPa 0,0 l/m 0 min 0 min 120 W/m 12,9 km/h (3 Bft) 95,56 %
11.04.2021 18:32 6,4 C 6,7 C 5,6 C 84 % 1016,4 hPa 0,0 l/m 0 min 0 min 116 W/m 12,9 km/h (3 Bft) 93,62 %
11.04.2021 18:34 6,4 C 6,7 C 5,6 C 84 % 1016,4 hPa 0,0 l/m 0 min 0 min 107 W/m 16,1 km/h (3 Bft) 93,62 %
11.04.2021 18:36 6,4 C 6,1 C 5,6 C 84 % 1016,4 hPa 0,0 l/m 0 min 0 min 94 W/m 16,1 km/h (3 Bft) 93,62 %
11.04.2021 18:38 6,4 C 6,1 C 5,6 C 83 % 1016,6 hPa 0,0 l/m 0 min 0 min 71 W/m 22,5 km/h (4 Bft) 95,65 %
11.04.2021 18:40 6,3 C 6,1 C 5,6 C 83 % 1016,6 hPa 0,0 l/m 0 min 0 min 58 W/m 16,1 km/h (3 Bft) 95,74 %
11.04.2021 18:42 6,4 C 6,1 C 5,6 C 83 % 1016,6 hPa 0,0 l/m 0 min 0 min 54 W/m 19,3 km/h (3 Bft) 95,74 %
11.04.2021 18:44 6,3 C 6,1 C 5,0 C 83 % 1016,5 hPa 0,0 l/m 0 min 0 min 56 W/m 19,3 km/h (3 Bft) 93,62 %
11.04.2021 18:46 6,3 C 6,1 C 5,0 C 83 % 1016,6 hPa 0,0 l/m 0 min 0 min 56 W/m 16,1 km/h (3 Bft) 95,74 %
11.04.2021 18:48 6,3 C 6,1 C 5,0 C 83 % 1016,6 hPa 0,0 l/m 0 min 0 min 55 W/m 9,7 km/h (2 Bft) 95,65 %
11.04.2021 18:50 6,3 C 6,1 C 5,0 C 83 % 1016,6 hPa 0,0 l/m 0 min 0 min 53 W/m 12,9 km/h (3 Bft) 95,74 %
11.04.2021 18:52 6,3 C 6,1 C 5,0 C 84 % 1016,6 hPa 0,0 l/m 0 min 0 min 53 W/m 6,4 km/h (2 Bft) 93,62 %
11.04.2021 18:54 6,3 C 6,1 C 5,0 C 84 % 1016,7 hPa 0,0 l/m 0 min 0 min 51 W/m 12,9 km/h (3 Bft) 91,49 %
11.04.2021 18:56 6,3 C 6,1 C 5,0 C 84 % 1016,7 hPa 0,0 l/m 0 min 0 min 43 W/m 9,7 km/h (2 Bft) 95,74 %
11.04.2021 18:58 6,2 C 6,1 C 5,0 C 84 % 1016,8 hPa 0,0 l/m 0 min 0 min 36 W/m 12,9 km/h (3 Bft) 97,87 %
11.04.2021 19:00 6,2 C 5,6 C 5,0 C 84 % 1016,8 hPa 0,0 l/m 0 min 0 min 33 W/m 6,4 km/h (2 Bft) 97,83 %
11.04.2021 19:02 6,2 C 5,6 C 5,0 C 84 % 1016,8 hPa 0,0 l/m 0 min 0 min 37 W/m 16,1 km/h (3 Bft) 93,75 %
11.04.2021 19:04 6,2 C 5,6 C 5,0 C 84 % 1016,9 hPa 0,0 l/m 0 min 0 min 41 W/m 12,9 km/h (3 Bft) 95,74 %
11.04.2021 19:06 6,1 C 5,6 C 5,0 C 84 % 1016,8 hPa 0,0 l/m 0 min 0 min 49 W/m 16,1 km/h (3 Bft) 97,87 %
11.04.2021 19:08 6,1 C 5,6 C 5,0 C 84 % 1016,9 hPa 0,0 l/m 0 min 0 min 53 W/m 12,9 km/h (3 Bft) 97,92 %
11.04.2021 19:10 6,1 C 5,6 C 5,0 C 84 % 1016,9 hPa 0,0 l/m 0 min 0 min 55 W/m 12,9 km/h (3 Bft) 97,87 %
11.04.2021 19:12 6,1 C 5,6 C 5,0 C 84 % 1016,9 hPa 0,0 l/m 0 min 0 min 60 W/m 9,7 km/h (2 Bft) 93,48 %
11.04.2021 19:14 6,1 C 5,6 C 5,0 C 84 % 1016,9 hPa 0,0 l/m 0 min 0 min 60 W/m 12,9 km/h (3 Bft) 97,87 %
11.04.2021 19:16 6,1 C 5,6 C 5,0 C 84 % 1016,9 hPa 0,0 l/m 0 min 0 min 59 W/m 16,1 km/h (3 Bft) 95,74 %
11.04.2021 19:18 6,1 C 6,1 C 5,0 C 85 % 1016,9 hPa 0,0 l/m 0 min 0 min 62 W/m 9,7 km/h (2 Bft) 97,87 %
11.04.2021 19:20 6,1 C 6,1 C 5,0 C 85 % 1017,0 hPa 0,0 l/m 0 min 0 min 62 W/m 22,5 km/h (4 Bft) 94,00 %
11.04.2021 19:22 6,1 C 6,1 C 5,0 C 85 % 1017,0 hPa 0,0 l/m 0 min 0 min 57 W/m 9,7 km/h (2 Bft) 97,87 %
11.04.2021 19:24 6,1 C 6,1 C 5,0 C 85 % 1017,0 hPa 0,0 l/m 0 min 0 min 48 W/m 16,1 km/h (3 Bft) 95,65 %
11.04.2021 19:26 6,1 C 6,1 C 5,0 C 85 % 1017,1 hPa 0,0 l/m 0 min 0 min 45 W/m 9,7 km/h (2 Bft) 97,87 %
11.04.2021 19:28 6,1 C 6,1 C 5,0 C 85 % 1017,1 hPa 0,0 l/m 0 min 0 min 52 W/m 6,4 km/h (2 Bft) 97,87 %
11.04.2021 19:30 6,1 C 6,1 C 5,0 C 85 % 1017,1 hPa 0,0 l/m 0 min 0 min 62 W/m 16,1 km/h (3 Bft) 95,74 %
11.04.2021 19:32 6,1 C 6,1 C 5,0 C 85 % 1017,1 hPa 0,0 l/m 0 min 0 min 60 W/m 9,7 km/h (2 Bft) 97,87 %
11.04.2021 19:34 6,1 C 6,1 C 5,0 C 85 % 1017,2 hPa 0,0 l/m 0 min 0 min 55 W/m 12,9 km/h (3 Bft) 95,74 %
11.04.2021 19:36 6,1 C 6,1 C 5,0 C 85 % 1017,3 hPa 0,0 l/m 2 min 0 min 62 W/m 16,1 km/h (3 Bft) 97,83 %
11.04.2021 19:38 6,1 C 6,1 C 5,0 C 85 % 1017,3 hPa 0,0 l/m 2 min 0 min 62 W/m 19,3 km/h (3 Bft) 97,87 %
11.04.2021 19:40 6,1 C 6,1 C 5,0 C 85 % 1017,3 hPa 0,0 l/m 2 min 0 min 65 W/m 9,7 km/h (2 Bft) 93,62 %
11.04.2021 19:42 6,1 C 6,1 C 5,0 C 85 % 1017,4 hPa 0,0 l/m 2 min 0 min 65 W/m 16,1 km/h (3 Bft) 97,87 %
11.04.2021 19:44 6,2 C 6,1 C 5,0 C 85 % 1017,4 hPa 0,0 l/m 2 min 0 min 62 W/m 9,7 km/h (2 Bft) 97,87 %
11.04.2021 19:46 6,2 C 6,1 C 5,0 C 85 % 1017,4 hPa 0,0 l/m 2 min 0 min 58 W/m 6,4 km/h (2 Bft) 95,65 %
11.04.2021 19:48 6,2 C 6,1 C 5,0 C 85 % 1017,5 hPa 0,0 l/m 2 min 0 min 51 W/m 12,9 km/h (3 Bft) 97,87 %
11.04.2021 19:50 6,2 C 6,1 C 5,0 C 85 % 1017,5 hPa 0,0 l/m 2 min 0 min 46 W/m 9,7 km/h (2 Bft) 97,87 %
11.04.2021 19:52 6,2 C 6,1 C 5,0 C 85 % 1017,6 hPa 0,0 l/m 2 min 0 min 45 W/m 12,9 km/h (3 Bft) 100,00 %
11.04.2021 19:54 6,2 C 6,1 C 5,0 C 85 % 1017,5 hPa 0,0 l/m 2 min 0 min 44 W/m 12,9 km/h (3 Bft) 100,00 %
11.04.2021 19:56 6,2 C 6,1 C 5,0 C 85 % 1017,6 hPa 0,0 l/m 2 min 0 min 40 W/m 9,7 km/h (2 Bft) 100,00 %
11.04.2021 19:58 6,2 C 6,1 C 5,0 C 85 % 1017,6 hPa 0,0 l/m 2 min 0 min 33 W/m 9,7 km/h (2 Bft) 97,83 %
11.04.2021 20:00 6,2 C 5,6 C 5,0 C 84 % 1017,7 hPa 0,0 l/m 2 min 0 min 28 W/m 22,5 km/h (4 Bft) 97,87 %
11.04.2021 20:02 6,2 C 5,6 C 5,0 C 84 % 1017,6 hPa 0,0 l/m 2 min 0 min 23 W/m 19,3 km/h (3 Bft) 97,87 %
11.04.2021 20:04 6,1 C 5,6 C 5,0 C 84 % 1017,7 hPa 0,0 l/m 0 min 0 min 19 W/m 12,9 km/h (3 Bft) 97,87 %
11.04.2021 20:06 6,1 C 5,6 C 5,0 C 84 % 1017,8 hPa 0,0 l/m 0 min 0 min 17 W/m 12,9 km/h (3 Bft) 97,92 %
11.04.2021 20:08 6,1 C 5,6 C 5,0 C 84 % 1017,8 hPa 0,0 l/m 0 min 0 min 15 W/m 6,4 km/h (2 Bft) 100,00 %
11.04.2021 20:10 6,1 C 5,6 C 5,0 C 84 % 1017,8 hPa 0,0 l/m 0 min 0 min 13 W/m 12,9 km/h (3 Bft) 100,00 %
11.04.2021 20:12 6,1 C 5,6 C 5,0 C 84 % 1017,9 hPa 0,0 l/m 0 min 0 min 12 W/m 9,7 km/h (2 Bft) 100,00 %
11.04.2021 20:14 6,1 C 5,6 C 5,0 C 84 % 1017,9 hPa 0,0 l/m 0 min 0 min 11 W/m 12,9 km/h (3 Bft) 100,00 %
11.04.2021 20:16 6,1 C 5,6 C 5,0 C 83 % 1017,9 hPa 0,0 l/m 0 min 0 min 11 W/m 19,3 km/h (3 Bft) 97,87 %
11.04.2021 20:18 6,1 C 5,6 C 4,5 C 83 % 1017,9 hPa 0,0 l/m 0 min 0 min 10 W/m 12,9 km/h (3 Bft) 100,00 %
11.04.2021 20:20 6,1 C 5,6 C 4,5 C 83 % 1017,9 hPa 0,0 l/m 0 min 0 min 8 W/m 16,1 km/h (3 Bft) 100,00 %
11.04.2021 20:22 6,0 C 5,6 C 4,5 C 83 % 1018,0 hPa 0,0 l/m 0 min 0 min 7 W/m 12,9 km/h (3 Bft) 100,00 %
11.04.2021 20:24 6,0 C 5,6 C 4,5 C 83 % 1018,0 hPa 0,0 l/m 0 min 0 min 7 W/m 9,7 km/h (2 Bft) 100,00 %
11.04.2021 20:26 6,0 C 5,6 C 4,5 C 83 % 1018,1 hPa 0,0 l/m 0 min 0 min 6 W/m 9,7 km/h (2 Bft) 100,00 %
11.04.2021 20:28 6,0 C 5,6 C 4,5 C 83 % 1018,2 hPa 0,0 l/m 0 min 0 min 5 W/m 9,7 km/h (2 Bft) 100,00 %
11.04.2021 20:30 6,0 C 5,6 C 4,5 C 83 % 1018,2 hPa 0,0 l/m 0 min 0 min 5 W/m 6,4 km/h (2 Bft) 100,00 %
11.04.2021 20:32 6,0 C 5,6 C 4,5 C 82 % 1018,2 hPa 0,0 l/m 0 min 0 min 5 W/m 9,7 km/h (2 Bft) 100,00 %
11.04.2021 20:34 6,0 C 5,0 C 4,5 C 82 % 1018,3 hPa 0,0 l/m 0 min 0 min 1 W/m 6,4 km/h (2 Bft) 100,00 %
11.04.2021 20:36 6,0 C 5,0 C 4,5 C 82 % 1018,2 hPa 0,0 l/m 0 min 0 min 0 W/m 9,7 km/h (2 Bft) 100,00 %
11.04.2021 20:38 5,9 C 5,0 C 4,5 C 83 % 1018,3 hPa 0,0 l/m 0 min 0 min 0 W/m 6,4 km/h (2 Bft) 97,87 %
11.04.2021 20:40 5,9 C 5,0 C 4,5 C 82 % 1018,3 hPa 0,0 l/m 0 min 0 min 0 W/m 6,4 km/h (2 Bft) 97,87 %
11.04.2021 20:42 5,9 C 5,0 C 4,5 C 82 % 1018,4 hPa 0,0 l/m 0 min 0 min 0 W/m 9,7 km/h (2 Bft) 100,00 %
11.04.2021 20:44 5,8 C 5,0 C 4,5 C 82 % 1018,4 hPa 0,0 l/m 0 min 0 min 0 W/m 6,4 km/h (2 Bft) 100,00 %
11.04.2021 20:46 5,8 C 5,0 C 4,5 C 82 % 1018,5 hPa 0,0 l/m 0 min 0 min 0 W/m 9,7 km/h (2 Bft) 100,00 %
11.04.2021 20:48 5,8 C 5,0 C 3,9 C 82 % 1018,6 hPa 0,0 l/m 0 min 0 min 0 W/m 16,1 km/h (3 Bft) 100,00 %
11.04.2021 20:50 5,8 C 5,0 C 3,9 C 82 % 1018,6 hPa 0,0 l/m 0 min 0 min 0 W/m 9,7 km/h (2 Bft) 100,00 %
11.04.2021 20:52 5,7 C 5,0 C 3,9 C 82 % 1018,6 hPa 0,0 l/m 0 min 0 min 0 W/m 6,4 km/h (2 Bft) 100,00 %
11.04.2021 20:54 5,6 C 4,4 C 3,9 C 82 % 1018,6 hPa 0,0 l/m 0 min 0 min 0 W/m 6,4 km/h (2 Bft) 97,87 %
11.04.2021 20:56 5,6 C 4,4 C 3,9 C 82 % 1018,7 hPa 0,0 l/m 0 min 0 min 0 W/m 6,4 km/h (2 Bft) 97,83 %
11.04.2021 20:58 5,6 C 4,4 C 3,9 C 82 % 1018,7 hPa 0,0 l/m 0 min 0 min 0 W/m 16,1 km/h (3 Bft) 97,87 %
11.04.2021 21:00 5,5 C 4,4 C 3,9 C 82 % 1018,7 hPa 0,0 l/m 0 min 0 min 0 W/m 12,9 km/h (3 Bft) 97,87 %
11.04.2021 21:02 5,5 C 4,4 C 3,9 C 81 % 1018,7 hPa 0,0 l/m 0 min 0 min 0 W/m 12,9 km/h (3 Bft) 97,87 %
11.04.2021 21:04 5,5 C 4,4 C 3,9 C 81 % 1018,8 hPa 0,0 l/m 0 min 0 min 0 W/m 19,3 km/h (3 Bft) 97,87 %
11.04.2021 21:06 5,4 C 4,4 C 3,4 C 81 % 1018,8 hPa 0,0 l/m 0 min 0 min 0 W/m 9,7 km/h (2 Bft) 97,14 %
11.04.2021 21:08 5,4 C 4,4 C 3,4 C 81 % 1018,9 hPa 0,0 l/m 0 min 0 min 0 W/m 16,1 km/h (3 Bft) 97,87 %
11.04.2021 21:10 5,3 C 4,4 C 3,4 C 81 % 1018,9 hPa 0,0 l/m 0 min 0 min 0 W/m 6,4 km/h (2 Bft) 97,87 %
11.04.2021 21:12 5,3 C 4,4 C 3,4 C 81 % 1018,9 hPa 0,0 l/m 0 min 0 min 0 W/m 12,9 km/h (3 Bft) 95,65 %
11.04.2021 21:14 5,3 C 4,4 C 3,4 C 81 % 1018,9 hPa 0,0 l/m 0 min 0 min 0 W/m 9,7 km/h (2 Bft) 95,74 %
11.04.2021 21:16 5,3 C 3,9 C 3,4 C 81 % 1018,9 hPa 0,0 l/m 0 min 0 min 0 W/m 12,9 km/h (3 Bft) 95,74 %
11.04.2021 21:18 5,2 C 3,9 C 3,4 C 81 % 1019,0 hPa 0,0 l/m 0 min 0 min 0 W/m 12,9 km/h (3 Bft) 97,87 %
11.04.2021 21:20 5,1 C 3,9 C 3,4 C 81 % 1019,0 hPa 0,0 l/m 0 min 0 min 0 W/m 9,7 km/h (2 Bft) 97,87 %
11.04.2021 21:22 5,1 C 3,9 C 3,4 C 81 % 1019,0 hPa 0,0 l/m 0 min 0 min 0 W/m 6,4 km/h (2 Bft) 97,87 %
11.04.2021 21:24 5,1 C 3,9 C 3,4 C 81 % 1019,0 hPa 0,0 l/m 0 min 0 min 0 W/m 3,2 km/h (1 Bft) 95,65 %
11.04.2021 21:26 5,1 C 3,9 C 3,4 C 81 % 1019,1 hPa 0,0 l/m 0 min 0 min 0 W/m 9,7 km/h (2 Bft) 97,87 %
11.04.2021 21:28 5,1 C 3,9 C 3,4 C 81 % 1019,1 hPa 0,0 l/m 0 min 0 min 0 W/m 6,4 km/h (2 Bft) 95,74 %
11.04.2021 21:30 5,0 C 3,9 C 3,4 C 82 % 1019,1 hPa 0,0 l/m 0 min 0 min 0 W/m 3,2 km/h (1 Bft) 93,62 %
11.04.2021 21:32 5,0 C 3,9 C 3,4 C 82 % 1019,1 hPa 0,0 l/m 0 min 0 min 0 W/m 6,4 km/h (2 Bft) 95,74 %
11.04.2021 21:34 5,0 C 3,9 C 2,8 C 82 % 1019,1 hPa 0,0 l/m 0 min 0 min 0 W/m 9,7 km/h (2 Bft) 97,87 %
11.04.2021 21:36 5,0 C 3,9 C 2,8 C 82 % 1019,1 hPa 0,0 l/m 0 min 0 min 0 W/m 3,2 km/h (1 Bft) 97,83 %
11.04.2021 21:38 4,9 C 3,3 C 2,8 C 82 % 1019,1 hPa 0,0 l/m 0 min 0 min 0 W/m 6,4 km/h (2 Bft) 95,74 %
11.04.2021 21:40 4,9 C 3,3 C 2,8 C 82 % 1019,2 hPa 0,0 l/m 0 min 0 min 0 W/m 3,2 km/h (1 Bft) 97,87 %
11.04.2021 21:42 4,9 C 3,3 C 2,8 C 82 % 1019,2 hPa 0,0 l/m 0 min 0 min 0 W/m 3,2 km/h (1 Bft) 97,87 %
11.04.2021 21:44 4,8 C 3,3 C 2,8 C 83 % 1019,2 hPa 0,0 l/m 0 min 0 min 0 W/m 3,2 km/h (1 Bft) 95,74 %
11.04.2021 21:46 4,8 C 3,3 C 2,8 C 83 % 1019,2 hPa 0,0 l/m 0 min 0 min 0 W/m 3,2 km/h (1 Bft) 95,74 %
11.04.2021 21:48 4,8 C 3,3 C 2,8 C 83 % 1019,3 hPa 0,0 l/m 0 min 0 min 0 W/m 3,2 km/h (1 Bft) 93,48 %
11.04.2021 21:50 4,7 C 3,3 C 2,8 C 83 % 1019,3 hPa 0,0 l/m 0 min 0 min 0 W/m 3,2 km/h (1 Bft) 97,87 %
11.04.2021 21:52 4,7 C 3,3 C 2,8 C 83 % 1019,4 hPa 0,0 l/m 0 min 0 min 0 W/m 6,4 km/h (2 Bft) 95,74 %
11.04.2021 21:54 4,6 C 3,3 C 2,3 C 83 % 1019,4 hPa 0,0 l/m 0 min 0 min 0 W/m 6,4 km/h (2 Bft) 97,87 %
11.04.2021 21:56 4,6 C 3,3 C 2,3 C 83 % 1019,5 hPa 0,0 l/m 0 min 0 min 0 W/m 3,2 km/h (1 Bft) 97,87 %
11.04.2021 21:58 4,5 C 3,3 C 2,3 C 83 % 1019,5 hPa 0,0 l/m 0 min 0 min 0 W/m 3,2 km/h (1 Bft) 97,87 %
11.04.2021 22:00 4,5 C 2,8 C 2,3 C 83 % 1019,5 hPa 0,0 l/m 0 min 0 min 0 W/m 0,0 km/h (0 Bft) 97,83 %
11.04.2021 22:02 4,5 C 2,8 C 2,3 C 83 % 1019,5 hPa 0,0 l/m 0 min 0 min 0 W/m 3,2 km/h (1 Bft) 97,87 %
11.04.2021 22:04 4,5 C 2,8 C 2,3 C 83 % 1019,6 hPa 0,0 l/m 0 min 0 min 0 W/m 3,2 km/h (1 Bft) 95,74 %
11.04.2021 22:06 4,4 C 2,8 C 2,3 C 83 % 1019,6 hPa 0,0 l/m 0 min 0 min 0 W/m 3,2 km/h (1 Bft) 97,92 %
11.04.2021 22:08 4,4 C 2,8 C 2,3 C 83 % 1019,6 hPa 0,0 l/m 0 min 0 min 0 W/m 0,0 km/h (0 Bft) 93,62 %
11.04.2021 22:10 4,4 C 2,8 C 2,3 C 83 % 1019,7 hPa 0,0 l/m 0 min 0 min 0 W/m 0,0 km/h (0 Bft) 95,65 %
11.04.2021 22:12 4,3 C 2,8 C 2,3 C 84 % 1019,7 hPa 0,0 l/m 0 min 0 min 0 W/m 0,0 km/h (0 Bft) 97,87 %
11.04.2021 22:14 4,3 C 2,8 C 1,7 C 84 % 1019,6 hPa 0,0 l/m 0 min 0 min 0 W/m 3,2 km/h (1 Bft) 52,27 %
11.04.2021 22:16 4,2 C 2,8 C 1,7 C 84 % 1019,6 hPa 0,0 l/m 0 min 0 min 0 W/m 3,2 km/h (1 Bft) 97,87 %
11.04.2021 22:18 4,1 C 2,8 C 1,7 C 84 % 1019,6 hPa 0,0 l/m 0 min 0 min 0 W/m 3,2 km/h (1 Bft) 97,87 %
11.04.2021 22:20 4,1 C 2,2 C 1,7 C 84 % 1019,7 hPa 0,0 l/m 0 min 0 min 0 W/m 3,2 km/h (1 Bft) 100,00 %
11.04.2021 22:22 4,1 C 2,2 C 1,7 C 84 % 1019,7 hPa 0,0 l/m 0 min 0 min 0 W/m 3,2 km/h (1 Bft) 100,00 %
11.04.2021 22:24 4,0 C 2,8 C 1,7 C 84 % 1019,7 hPa 0,0 l/m 0 min 0 min 0 W/m 3,2 km/h (1 Bft) 100,00 %
11.04.2021 22:26 4,0 C 2,8 C 1,7 C 85 % 1019,7 hPa 0,0 l/m 0 min 0 min 0 W/m 6,4 km/h (2 Bft) 100,00 %
11.04.2021 22:28 4,0 C 2,2 C 1,7 C 85 % 1019,7 hPa 0,0 l/m 0 min 0 min 0 W/m 3,2 km/h (1 Bft) 100,00 %
11.04.2021 22:30 3,9 C 2,8 C 1,7 C 85 % 1019,7 hPa 0,0 l/m 0 min 0 min 0 W/m 3,2 km/h (1 Bft) 95,74 %
11.04.2021 22:32 3,9 C 2,8 C 1,7 C 85 % 1019,7 hPa 0,0 l/m 0 min 0 min 0 W/m 3,2 km/h (1 Bft) 100,00 %
11.04.2021 22:34 3,8 C 2,8 C 1,7 C 85 % 1019,7 hPa 0,0 l/m 0 min 0 min 0 W/m 6,4 km/h (2 Bft) 100,00 %
11.04.2021 22:36 3,8 C 2,8 C 1,7 C 85 % 1019,7 hPa 0,0 l/m 0 min 0 min 0 W/m 6,4 km/h (2 Bft) 100,00 %
11.04.2021 22:38 3,8 C 2,8 C 1,7 C 85 % 1019,8 hPa 0,0 l/m 0 min 0 min 0 W/m 3,2 km/h (1 Bft) 100,00 %
11.04.2021 22:40 3,7 C 2,8 C 1,7 C 85 % 1019,8 hPa 0,0 l/m 0 min 0 min 0 W/m 9,7 km/h (2 Bft) 100,00 %
11.04.2021 22:42 3,6 C 2,8 C 2,3 C 85 % 1019,9 hPa 0,0 l/m 0 min 0 min 0 W/m 12,9 km/h (3 Bft) 97,87 %
11.04.2021 22:44 3,6 C 2,8 C 2,3 C 85 % 1019,9 hPa 0,0 l/m 0 min 0 min 0 W/m 9,7 km/h (2 Bft) 97,87 %
11.04.2021 22:46 3,6 C 2,8 C 2,3 C 84 % 1019,9 hPa 0,0 l/m 0 min 0 min 0 W/m 12,9 km/h (3 Bft) 100,00 %
11.04.2021 22:48 3,5 C 2,8 C 2,3 C 84 % 1019,9 hPa 0,0 l/m 0 min 0 min 0 W/m 16,1 km/h (3 Bft) 100,00 %
11.04.2021 22:50 3,5 C 2,8 C 2,3 C 84 % 1020,0 hPa 0,0 l/m 0 min 0 min 0 W/m 9,7 km/h (2 Bft) 100,00 %
11.04.2021 22:52 3,5 C 2,8 C 2,3 C 84 % 1020,1 hPa 0,0 l/m 0 min 0 min 0 W/m 6,4 km/h (2 Bft) 97,87 %
11.04.2021 22:54 3,5 C 2,8 C 2,3 C 83 % 1020,1 hPa 0,0 l/m 0 min 0 min 0 W/m 6,4 km/h (2 Bft) 97,87 %
11.04.2021 22:56 3,5 C 2,8 C 2,3 C 83 % 1020,3 hPa 0,0 l/m 0 min 0 min 0 W/m 6,4 km/h (2 Bft) 100,00 %
11.04.2021 22:58 3,5 C 2,8 C 2,3 C 83 % 1020,3 hPa 0,0 l/m 0 min 0 min 0 W/m 6,4 km/h (2 Bft) 97,83 %
11.04.2021 23:00 3,5 C 2,8 C 2,3 C 83 % 1020,3 hPa 0,0 l/m 0 min 0 min 0 W/m 6,4 km/h (2 Bft) 100,00 %
11.04.2021 23:02 3,5 C 2,8 C 2,3 C 83 % 1020,3 hPa 0,0 l/m 0 min 0 min 0 W/m 6,4 km/h (2 Bft) 97,87 %
11.04.2021 23:04 3,4 C 2,8 C 2,3 C 83 % 1020,4 hPa 0,0 l/m 0 min 0 min 0 W/m 3,2 km/h (1 Bft) 100,00 %
11.04.2021 23:06 3,4 C 2,8 C 1,7 C 83 % 1020,4 hPa 0,0 l/m 0 min 0 min 0 W/m 3,2 km/h (1 Bft) 77,08 %
11.04.2021 23:08 3,4 C 2,2 C 1,7 C 83 % 1020,4 hPa 0,0 l/m 0 min 0 min 0 W/m 3,2 km/h (1 Bft) 73,53 %
11.04.2021 23:10 3,4 C 2,2 C 1,7 C 83 % 1020,4 hPa 0,0 l/m 0 min 0 min 0 W/m 3,2 km/h (1 Bft) 100,00 %
11.04.2021 23:12 3,4 C 2,2 C 1,7 C 83 % 1020,5 hPa 0,0 l/m 0 min 0 min 0 W/m 3,2 km/h (1 Bft) 100,00 %
11.04.2021 23:14 3,4 C 2,2 C 1,7 C 83 % 1020,5 hPa 0,0 l/m 0 min 0 min 0 W/m 3,2 km/h (1 Bft) 100,00 %
11.04.2021 23:16 3,3 C 2,2 C 1,7 C 84 % 1020,5 hPa 0,0 l/m 0 min 0 min 0 W/m 3,2 km/h (1 Bft) 100,00 %
11.04.2021 23:18 3,3 C 2,2 C 1,7 C 84 % 1020,6 hPa 0,0 l/m 0 min 0 min 0 W/m 6,4 km/h (2 Bft) 100,00 %
11.04.2021 23:20 3,3 C 2,2 C 1,7 C 84 % 1020,7 hPa 0,0 l/m 0 min 0 min 0 W/m 6,4 km/h (2 Bft) 100,00 %
11.04.2021 23:22 3,3 C 2,2 C 1,7 C 84 % 1020,6 hPa 0,0 l/m 0 min 0 min 0 W/m 0,0 km/h (0 Bft) 100,00 %
11.04.2021 23:24 3,2 C 2,2 C 1,7 C 84 % 1020,6 hPa 0,0 l/m 0 min 0 min 0 W/m 3,2 km/h (1 Bft) 100,00 %
11.04.2021 23:26 3,2 C 2,2 C 1,7 C 84 % 1020,7 hPa 0,0 l/m 0 min 0 min 0 W/m 3,2 km/h (1 Bft) 100,00 %
11.04.2021 23:28 3,1 C 2,2 C 1,7 C 85 % 1020,6 hPa 0,0 l/m 0 min 0 min 0 W/m 3,2 km/h (1 Bft) 100,00 %
11.04.2021 23:30 3,1 C 2,2 C 1,1 C 85 % 1020,7 hPa 0,0 l/m 0 min 0 min 0 W/m 3,2 km/h (1 Bft) 100,00 %
11.04.2021 23:32 3,1 C 2,2 C 1,1 C 85 % 1020,7 hPa 0,0 l/m 0 min 0 min 0 W/m 6,4 km/h (2 Bft) 97,87 %
11.04.2021 23:34 3,0 C 2,2 C 1,1 C 85 % 1020,8 hPa 0,0 l/m 0 min 0 min 0 W/m 3,2 km/h (1 Bft) 100,00 %
11.04.2021 23:36 3,0 C 2,2 C 1,1 C 85 % 1020,8 hPa 0,0 l/m 0 min 0 min 0 W/m 3,2 km/h (1 Bft) 100,00 %
11.04.2021 23:38 3,0 C 2,2 C 1,1 C 85 % 1020,9 hPa 0,0 l/m 0 min 0 min 0 W/m 3,2 km/h (1 Bft) 95,74 %
11.04.2021 23:40 3,0 C 2,2 C 1,1 C 86 % 1020,9 hPa 0,0 l/m 0 min 0 min 0 W/m 6,4 km/h (2 Bft) 97,87 %
11.04.2021 23:42 2,9 C 2,2 C 1,1 C 85 % 1020,9 hPa 0,0 l/m 0 min 0 min 0 W/m 3,2 km/h (1 Bft) 100,00 %
11.04.2021 23:44 2,9 C 2,2 C 1,1 C 85 % 1021,0 hPa 0,0 l/m 0 min 0 min 0 W/m 3,2 km/h (1 Bft) 97,87 %
11.04.2021 23:46 2,9 C 2,2 C 1,1 C 86 % 1021,0 hPa 0,0 l/m 0 min 0 min 0 W/m 0,0 km/h (0 Bft) 95,74 %
11.04.2021 23:48 2,9 C 1,7 C 1,1 C 86 % 1021,1 hPa 0,0 l/m 0 min 0 min 0 W/m 0,0 km/h (0 Bft) 100,00 %
11.04.2021 23:50 2,8 C 1,7 C 1,1 C 86 % 1021,0 hPa 0,0 l/m 0 min 0 min 0 W/m 0,0 km/h (0 Bft) 97,87 %
11.04.2021 23:52 2,8 C 1,7 C 1,1 C 86 % 1021,0 hPa 0,0 l/m 0 min 0 min 0 W/m 3,2 km/h (1 Bft) 95,74 %
11.04.2021 23:54 2,8 C 1,7 C 1,1 C 86 % 1021,0 hPa 0,0 l/m 0 min 0 min 0 W/m 3,2 km/h (1 Bft) 97,83 %
11.04.2021 23:56 2,8 C 1,7 C 1,1 C 86 % 1021,0 hPa 0,0 l/m 0 min 0 min 0 W/m 0,0 km/h (0 Bft) 97,87 %
11.04.2021 23:58 2,7 C 1,7 C 1,1 C 86 % 1021,1 hPa 0,0 l/m 0 min 0 min 0 W/m 3,2 km/h (1 Bft) 97,87 %
_ Min-Zeit 23:58 23:48 23:30 21:02 03:04 - - - - 22:00 01:04
Minimum _ 2,7 C 1,7 C 1,1 C 81 % 1006,3 hPa - - - - 0,0 km/h (0 Bft) 47,37 %
_ Max-Zeit 00:00 00:00 00:00 03:18 23:48 00:32 14:46 00:08 14:46 15:44 00:44
Maximum _ 9,8 C 8,9 C 8,4 C 99 % 1021,1 hPa 0,2 l/m 2 min 4 min 356 W/m 32,2 km/h
N-NO (5 Bft)
100,00 %
Durchschnitt _ 5,6 C 5,2 C 4,7 C 93 % 1012,5 hPa #6,6 l/m #30 min. #10:34 h 100 W/m 12,6 km/h (3 Bft) 97,31 %
© 2021 W. Hausmann